ログインしてさらにmixiを楽しもう

コメントを投稿して情報交換!
更新通知を受け取って、最新情報をゲット!

ホーム > コミュニティ > サークル、ゼミ > RJCCのMETAR・TAF 愛好会 > トピック一覧 > 【資料編】日々のMETAR 2...

RJCCのMETAR・TAF 愛好会コミュの【資料編】日々のMETAR 2017年01月01日〜2017年12月31日分

  • mixiチェック
  • このエントリーをはてなブックマークに追加

コミュ内全体

2017年01月01日 00h (UTC)〜 01月31日 24h(UTC) コメントNo 001〜089
2017年02月01日 00h (UTC)〜 02月29日 24h(UTC) コメントNo 090〜172
2017年03月01日 00h (UTC)〜 03月31日 24h(UTC) コメントNo 173〜258
2017年04月01日 00h (UTC)〜 04月30日 24h(UTC) コメントNo 259〜340
2017年05月01日 00h (UTC)〜 05月31日 24h(UTC) コメントNo 341〜423
2017年06月01日 00h (UTC)〜 06月30日 24h(UTC) コメントNo 424〜509
2017年07月01日 00h (UTC)〜 07月31日 24h(UTC) コメントNo 510〜
2017年08月01日 00h (UTC)〜 08月31日 24h(UTC) コメントNo 〜
2017年09月01日 00h (UTC)〜 09月30日 24h(UTC) コメントNo 〜
2017年10月01日 00h (UTC)〜 10月31日 24h(UTC) コメントNo 〜
2017年11月01日 00h (UTC)〜 11月30日 24h(UTC) コメントNo 〜
2017年12月01日 00h (UTC)〜 12月31日 24h(UTC) コメントNo 〜

記録できた日々のMETAR報を貼っていきます。
時々データ抜けのあることがあります。
収集元でデータの欠落がある場合もありますのであくまで参考に願います。
(気が付いた部分は手修正をしてある場合もあります)

また、資料編ですのでお気づきな点や雑談は↓
http://mixi.jp/view_bbs.pl?id=49275149&comm_id=4753062
↑こちらへどうぞ お願いします

2009年12月26日〜2010年12月31日分の分は↓
http://mixi.jp/view_bbs.pl?id=51133430&comm_id=4753062
2011年01月01日〜2011年12月31日分の分は↓
http://mixi.jp/view_bbs.pl?id=59038880&comm_id=4753062
2012年01月01日〜2012年12月31日分の分は↓
http://mixi.jp/view_bbs.pl?id=67034312&comm_id=4753062
2013年01月01日〜2013年12月31日分の分は↓
http://mixi.jp/view_bbs.pl?id=72710304&comm_id=4753062
2014年01月01日〜2014年12月31日分の分は↓
http://mixi.jp/view_bbs.pl?id=75482778&comm_id=4753062
2015年01月01日〜2015年12月16日分の分は↓
http://mixi.jp/view_bbs.pl?id=77499256&comm_id=4753062
2015年12月17日〜2015年12月31日分の分は↓
http://mixi.jp/view_bbs.pl?id=79198706&comm_id=4753062
2016年01月01日〜2016年11月30日分の分は↓
http://mixi.jp/view_bbs.pl?comm_id=4753062&id=79198682
2016年12月01日〜2016年12月31日分の分は↓
http://mixi.jp/view_bbs.pl?comm_id=4753062&id=81180137

コメント(535)

-3
RJCC 251500Z 35016KT 9999 FEW008 BKN010 12/12 Q1002 RMK 1ST008 7ST010 A2961
RJCC 251530Z 35016KT 9999 FEW008 BKN011 12/12 Q1002 RMK 1ST008 7ST011 A2961
RJCC 251600Z 34015KT 9999 FEW008 BKN011 12/12 Q1002 RMK 1ST008 7ST011 A2961
RJCC 251630Z 34015KT 9999 FEW008 BKN012 12/12 Q1002 RMK 1ST008 7ST012 A2961
RJCC 251700Z 34013KT 9999 FEW008 BKN013 12/12 Q1002 RMK 1ST008 7ST013 A2961
RJCC 251730Z 33015KT 9999 FEW010 BKN015 13/13 Q1002 RMK 1ST010 7ST015 A2961
RJCC 251800Z 34015KT 9999 FEW012 BKN016 13/13 Q1003 RMK 1ST012 7ST016 A2962
RJCC 251830Z 34015KT 9999 FEW008 SCT015 BKN018 13/13 Q1003 RMK 1ST008 3ST015 7ST018 A2963
RJCC 251900Z 35013KT 9999 FEW008 SCT015 BKN020 13/13 Q1003 RMK 1ST008 4ST015 7ST020 A2963
RJCC 251930Z 35013KT 9999 FEW008 BKN015 BKN020 13/12 Q1003 RMK 1ST008 6ST015 7ST020 A2964
RJCC 252000Z 34017KT 9999 FEW008 BKN015 13/12 Q1003 RMK 1ST008 7ST015 A2964
RJCC 252002Z 34016G26KT 9999 FEW008 BKN015 13/12 Q1003 RMK 1ST008 7ST015 A2964
RJCC 252030Z 34017KT 9999 FEW008 BKN015 BKN025 13/12 Q1003 RMK 1ST008 5ST015 6CU025 A2964
RJCC 252100Z 34017KT 9999 FEW010 BKN017 BKN025 13/11 Q1004 RMK 1ST010 5ST017 7CU025 A2966
RJCC 252106Z 34018G28KT 9999 FEW010 BKN017 BKN025 13/11 Q1004 RMK 1ST010 5ST017 7CU025 A2966
RJCC 252130Z 34018KT 9999 FEW010 BKN017 BKN025 13/12 Q1004 RMK 1ST010 6ST017 7CU025 A2966
RJCC 252200Z 34020KT 9999 FEW010 SCT015 BKN020 13/12 Q1004 RMK 1ST010 3ST015 7CU020 A2967
RJCC 252209Z 34019G29KT 9999 FEW010 SCT015 BKN020 13/11 Q1004 RMK 1ST010 3ST015 7CU020 A2967
RJCC 252230Z 34019KT 9999 FEW015 BKN020 15/11 Q1004 RMK 1ST015 6CU020 A2967
RJCC 252300Z 35016KT 9999 FEW015 BKN018 14/11 Q1005 RMK 1ST015 7ST018 A2968
RJCC 252330Z 34016KT 9999 FEW015 BKN018 15/10 Q1005 RMK 1ST015 7ST018 A2969
2017年6月26日00-24UTC 新千歳空港METAR -1

RJCC 260000Z 34014KT 9999 FEW015 BKN025 15/10 Q1005 RMK 1ST015 7CU025 A2969
RJCC 260030Z 34017KT 9999 FEW015 BKN025 15/11 Q1005 RMK 1ST015 7CU025 A2969
RJCC 260100Z 35019KT 9999 FEW015 BKN020 15/10 Q1005 RMK 1ST015 7CU020 A2969
RJCC 260130Z 33018KT 9999 FEW015 SCT020 BKN025 16/10 Q1005 RMK 1ST015 3CU020 7CU025 A2970
RJCC 260200Z 34017KT 9999 -SHRA FEW015 SCT020 BKN025 15/11 Q1006 RMK 1ST015 3CU020 6CU025 A2971
RJCC 260229Z 35017G27KT 9999 -SHRA FEW015 SCT020 BKN025 15/11 Q1006 RMK 1ST015 4CU020 6CU025 A2971
RJCC 260230Z 35018G28KT 9999 -SHRA FEW015 SCT020 BKN025 15/11 Q1006 RMK 1ST015 4CU020 6CU025 A2971
RJCC 260300Z 35019KT 9999 FEW015 SCT020 BKN025 16/11 Q1006 RMK 1ST015 3CU020 5CU025 A2971
RJCC 260330Z 34017KT 9999 FEW020 SCT025 17/10 Q1006 RMK 1CU020 4CU025 A2971
RJCC 260400Z 33021KT 9999 FEW020 SCT025 17/09 Q1006 RMK 1CU020 4CU025 A2972
RJCC 260418Z 33020G30KT 9999 FEW025 17/09 Q1006 RMK 2CU025 A2972
RJCC 260430Z 33021KT 9999 SCT025 18/10 Q1006 RMK 3CU025 A2972
RJCC 260500Z 33021KT 9999 SCT025 17/09 Q1006 RMK 3CU025 A2972
RJCC 260530Z 34021KT 9999 FEW020 BKN030 17/08 Q1006 RMK 1CU020 5CU030 A2972
RJCC 260600Z 34019KT 9999 FEW020 BKN030 16/09 Q1006 RMK 1CU020 5CU030 A2973
RJCC 260630Z 33019KT 9999 FEW020 BKN030 17/09 Q1006 RMK 1CU020 6CU030 A2973
RJCC 260700Z 33018KT 9999 FEW020 SCT025 BKN035 16/10 Q1007 RMK 1CU020 3CU025 6CU035 A2974
RJCC 260730Z 34017KT 9999 SCT025 BKN035 16/09 Q1007 RMK 3CU025 5CU035 A2975
RJCC 260800Z 34016KT 9999 FEW020 SCT035 16/10 Q1007 RMK 1CU020 4CU035 A2976
RJCC 260830Z 33016KT 9999 FEW015 SCT020 BKN035 15/10 Q1008 RMK 1ST015 3CU020 5CU035 A2977
RJCC 260900Z 34014KT 9999 FEW015 SCT020 BKN040 15/10 Q1008 RMK 1ST015 4CU020 5CU040 A2978
RJCC 260930Z 33015KT 9999 FEW015 BKN020 14/10 Q1008 RMK 1ST015 5CU020 A2979
RJCC 261000Z 34012KT 9999 FEW015 13/10 Q1009 RMK 1ST015 A2980
RJCC 261030Z 35011KT 9999 FEW015 13/11 Q1009 RMK 1ST015 A2980
-2
RJCC 261100Z 35007KT 9999 FEW015 12/11 Q1009 RMK 1ST015 A2982
RJCC 261130Z 34008KT 9999 FEW015 BKN025 12/10 Q1010 RMK 1ST015 6CU025 A2984
RJCC 261200Z 34008KT 9999 FEW015 BKN030 12/10 Q1010 RMK 1ST015 5CU030 A2984
RJCC 261230Z 34006KT 9999 FEW015 BKN030 12/09 Q1010 RMK 1ST015 6CU030 A2985
RJCC 261300Z 34006KT 9999 FEW015 BKN025 12/09 Q1011 RMK 1ST015 6SC025 A2986
RJCC 261330Z 01004KT 9999 FEW015 BKN025 12/10 Q1011 RMK 1ST015 7SC025 A2986
RJCC 261400Z 36003KT 9999 FEW015 BKN025 12/10 Q1011 RMK 1ST015 7SC025 A2986
RJCC 261430Z 36004KT 9999 FEW015 BKN025 12/11 Q1011 RMK 1ST015 6SC025 A2986
RJCC 261500Z 35007KT 9999 FEW015 BKN025 12/11 Q1011 RMK 1ST015 7SC025 A2986
RJCC 261530Z 35009KT 9999 FEW015 BKN025 12/10 Q1011 RMK 1ST015 6SC025 A2986
RJCC 261600Z 36009KT 9999 FEW015 11/10 Q1011 RMK 1ST015 A2986
RJCC 261630Z 34006KT 9999 FEW015 11/11 Q1011 RMK 1ST015 A2986
RJCC 261700Z 33007KT 9999 FEW015 BKN130 12/11 Q1011 RMK 1ST015 6AC130 A2987
RJCC 261730Z 33006KT 9999 FEW015 SCT018 BKN130 11/11 Q1011 RMK 1ST015 3ST018 7AC130 A2987
RJCC 261800Z 29005KT 9999 FEW015 BKN018 BKN130 11/11 Q1011 RMK 1ST015 5ST018 7AC130 A2988
RJCC 261830Z 29003KT 9999 FEW015 SCT018 BKN130 11/11 Q1012 RMK 1ST015 4ST018 6AC130 A2989
RJCC 261900Z 30004KT 9999 FEW015 SCT025 BKN120 11/11 Q1012 RMK 1ST015 3SC025 6AC120 A2990
RJCC 261930Z 30006KT 9999 FEW018 BKN120 11/11 Q1012 RMK 1ST018 6AC120 A2990
-3
RJCC 262000Z 33006KT 9999 FEW018 SCT120 BKN160 12/12 Q1012 RMK 1ST018 4AC120 6AC160 A2990
RJCC 262030Z VRB02KT 9999 FEW018 SCT120 BKN160 12/12 Q1012 RMK 1ST018 3AC120 6AC160 A2991
RJCC 262100Z 24005KT 210V270 9999 FEW018 BKN160 13/12 Q1012 RMK 1ST018 6AC160 A2991
RJCC 262130Z 26003KT 220V300 9999 FEW025 SCT100 BKN160 13/11 Q1012 RMK 1CU025 3AC100 6AC160 A2991
RJCC 262200Z 22004KT 9999 FEW020 BKN100 BKN160 13/10 Q1012 RMK 1CU020 5AC100 7AC160 A2991
RJCC 262230Z 34003KT 9999 FEW020 BKN100 BKN160 14/10 Q1013 RMK 1CU020 6AC100 7AC160 A2992
RJCC 262300Z VRB01KT 9999 FEW020 BKN100 14/10 Q1013 RMK 1CU020 6AC100 A2991
RJCC 262330Z VRB02KT 9999 FEW020 BKN100 14/10 Q1012 RMK 1CU020 6AC100 A2991
2017年6月27日00-24UTC 新千歳空港METAR -1

RJCC 270000Z VRB02KT 9999 FEW020 SCT100 BKN150 16/10 Q1012 RMK 1CU020 3AC100 5AC150 A2991
RJCC 270030Z 20004KT 150V280 9999 FEW025 SCT090 BKN150 16/09 Q1012 RMK 1CU025 3AC090 6AC150 A2990
RJCC 270100Z 17004KT 120V220 9999 FEW025 SCT090 BKN100 17/09 Q1012 RMK 1CU025 4AC090 5AC100 A2991
RJCC 270130Z 18008KT 140V220 9999 FEW030 SCT090 BKN100 18/10 Q1012 RMK 1CU030 3AC090 5AC100 A2991
RJCC 270200Z 19010KT 160V220 9999 FEW030 SCT140 BKN/// 19/11 Q1012 RMK 1CU030 4AC140 A2991
RJCC 270230Z 17012KT 9999 FEW035 SCT140 18/10 Q1012 RMK 1CU035 3AC140 A2990
RJCC 270300Z 17014KT 9999 FEW035 BKN140 18/11 Q1012 RMK 1CU035 5AC140 A2990
RJCC 270330Z 18015KT 9999 FEW040 SCT140 19/11 Q1012 RMK 1CU040 4AC140 A2990
RJCC 270400Z 18014KT 9999 FEW020 SCT140 18/11 Q1012 RMK 1CU020 3AC140 A2990
RJCC 270430Z 16014KT 130V200 9999 FEW015 SCT/// 18/10 Q1012 RMK 1ST015 A2990
RJCC 270500Z 17014KT 9999 FEW015 17/11 Q1012 RMK 1ST015 A2990
RJCC 270530Z 16012KT 9999 FEW020 SCT110 BKN/// 17/11 Q1012 RMK 1CU020 4AC110 A2990
RJCC 270600Z 17012KT 9999 FEW020 BKN060 BKN110 17/11 Q1012 RMK 1CU020 5CU060 6AC110 A2990
RJCC 270630Z 16008KT 130V200 9999 FEW020 SCT050 BKN110 16/11 Q1012 RMK 1CU020 4CU050 6AC110 A2991
RJCC 270700Z 18010KT 9999 FEW015 SCT050 BKN170 16/11 Q1012 RMK 1ST015 3CU050 6AC170 A2991
RJCC 270730Z 19009KT 9999 FEW015 BKN170 15/11 Q1012 RMK 1ST015 7AC170 A2991
RJCC 270800Z 18008KT 9999 -SHRA FEW015 SCT050 BKN170 15/11 Q1013 RMK 1ST015 3CU050 7AC170 A2991
RJCC 270830Z 18008KT 9999 FEW015 SCT050 BKN170 15/11 Q1013 RMK 1ST015 3CU050 7AC170 A2992
RJCC 270900Z 18005KT 9999 -SHRA FEW015 BKN050 BKN170 14/12 Q1013 RMK 1ST015 5CU050 7AC170 A2993
RJCC 270930Z 17004KT 9999 FEW015 SCT050 BKN/// 14/12 Q1013 RMK 1ST015 3CU050 A2993
RJCC 271000Z 17003KT 9999 FEW015 SCT045 BKN/// 14/12 Q1013 RMK 1ST015 3CU045 A2993
RJCC 271030Z 21005KT 9999 FEW015 BKN/// 14/13 Q1013 RMK 1ST015 A2994
-2
RJCC 271100Z 18004KT 9999 FEW015 SCT100 BKN/// 13/13 Q1014 RMK 1ST015 3AC100 A2994
RJCC 271130Z 15004KT 9999 FEW015 BKN100 13/13 Q1014 RMK 1ST015 6AC100 A2995
RJCC 271200Z 17003KT 9999 FEW015 BKN100 12/12 Q1014 RMK 1ST015 6AC100 A2995
RJCC 271230Z 16003KT 110V190 9999 FEW015 SCT100 12/12 Q1014 RMK 1ST015 4AC100 A2995
RJCC 271300Z 14004KT 9999 FEW015 11/11 Q1014 RMK 1ST015 A2995
RJCC 271330Z 14003KT 110V170 9999 FEW010 11/11 Q1014 RMK 1ST010 A2995
RJCC 271400Z 13004KT 9999 FEW010 11/11 Q1014 RMK 1ST010 A2995
RJCC 271430Z 14005KT 6000 FEW004 SCT010 BKN100 11/11 Q1014 RMK 1ST004 3ST010 5AC100 A2995
RJCC 271500Z 13005KT 8000 FEW005 BKN008 11/11 Q1014 RMK 1ST005 6ST008 A2995
RJCC 271530Z 14002KT 9999 FEW007 BKN008 12/12 Q1014 RMK 2ST007 6ST008 A2995
RJCC 271600Z 13003KT 9999 FEW007 SCT009 BKN100 12/12 Q1014 RMK 1ST007 4ST009 5AC100 A2995
RJCC 271630Z 00000KT 9999 FEW006 BKN008 BKN100 12/12 Q1014 RMK 1ST006 5ST008 6AC100 A2995
RJCC 271700Z 00000KT 9999 FEW007 BKN020 BKN100 12/12 Q1014 RMK 2ST007 5CU020 6AC100 A2994
RJCC 271730Z 06002KT 9999 FEW008 SCT020 BKN070 12/12 Q1014 RMK 1ST008 3CU020 5AC070 A2994
RJCC 271800Z 01001KT 9999 FEW008 SCT020 BKN070 12/12 Q1014 RMK 1ST008 3CU020 6AC070 A2994
RJCC 271830Z 35002KT 9999 FEW008 BKN070 12/12 Q1014 RMK 1ST008 5AC070 A2995
RJCC 271900Z 34003KT 9999 FEW008 11/11 Q1014 RMK 1ST008 A2995
RJCC 271930Z 35003KT 9999 FEW010 12/12 Q1014 RMK 1ST010 A2995
RJCC 272000Z 36002KT 8000 FEW015 12/12 Q1014 RMK 1ST015 A2995
RJCC 272030Z 36003KT 8000 FEW025 13/13 Q1014 RMK 1SC025 A2996
RJCC 272100Z 36004KT 9999 FEW025 14/14 Q1014 RMK 1SC025 A2996
RJCC 272130Z 34005KT 9999 FEW025 15/15 Q1014 RMK 1CU025 A2997
RJCC 272200Z 34006KT 9999 FEW025 16/14 Q1015 RMK 1CU025 A2997
RJCC 272230Z 35006KT 320V020 9999 FEW025 17/14 Q1014 RMK 1CU025 A2997
RJCC 272300Z 35006KT 320V020 9999 FEW025 18/13 Q1014 RMK 1CU025 A2996
RJCC 272330Z 01008KT 340V050 9999 FEW030 19/14 Q1014 RMK 1CU030 A2995
2017年6月28日00-24UTC 新千歳空港METAR -1

RJCC 280000Z 01008KT 340V050 9999 FEW025 SCT030 19/13 Q1014 RMK 1CU025 3CU030 A2995
RJCC 280030Z 02008KT 330V040 9999 FEW025 20/13 Q1014 RMK 2CU025 A2995
RJCC 280100Z 35005KT 320V050 9999 FEW025 20/13 Q1014 RMK 2CU025 A2994
RJCC 280130Z 35009KT 320V020 9999 FEW025 20/13 Q1013 RMK 2CU025 A2994
RJCC 280200Z 35010KT 310V020 9999 FEW025 21/13 Q1013 RMK 2CU025 A2994
RJCC 280230Z 36009KT 320V020 9999 FEW025 21/13 Q1013 RMK 2CU025 A2994
RJCC 280300Z 35008KT 310V020 9999 FEW025 21/14 Q1013 RMK 2CU025 A2993
RJCC 280330Z 35009KT 310V030 9999 FEW030 22/14 Q1013 RMK 1CU030 A2992
RJCC 280400Z 35008KT 320V030 9999 FEW030 23/15 Q1013 RMK 1CU030 A2992
RJCC 280430Z 35007KT 320V030 9999 FEW030 SCT/// 23/14 Q1012 RMK 1CU030 A2991
RJCC 280500Z 36007KT 330V040 9999 FEW030 SCT/// 23/15 Q1012 RMK 1CU030 A2991
RJCC 280530Z 36007KT 320V050 9999 FEW030 SCT/// 23/15 Q1012 RMK 1CU030 A2991
RJCC 280600Z 36006KT 320V050 9999 FEW035 SCT/// 23/14 Q1012 RMK 1CU035 A2991
RJCC 280630Z 02007KT 9999 FEW035 BKN/// 23/15 Q1012 RMK 1CU035 A2990
RJCC 280700Z 03006KT 350V050 9999 FEW035 BKN/// 22/14 Q1012
RJCC 280730Z 01007KT 9999 FEW030 BKN/// 22/14 Q1012 RMK 1CU030 A2991
RJCC 280800Z 03006KT 360V070 9999 FEW030 BKN/// 22/15 Q1013 RMK 1CU030 A2992
RJCC 280830Z 02007KT 9999 FEW030 BKN/// 21/14 Q1013 RMK 1CU030 A2992
RJCC 280900Z 16010KT 9999 FEW030 BKN/// 18/14 Q1013
RJCC 280930Z 14008KT 9999 FEW030 BKN/// 16/15 Q1013 RMK 1CU030 A2994
RJCC 281000Z 14006KT 9999 FEW030 BKN/// 16/16 Q1013
RJCC 281030Z 13005KT 9999 FEW030 BKN/// 16/16 Q1013 RMK 1CU030 A2994
RJCC 281100Z 16004KT 9999 FEW035 SCT080 BKN/// 15/15 Q1014 RMK 1CU035 3AC080 A2995
RJCC 281130Z 17004KT 9999 FEW035 SCT080 BKN/// 15/15 Q1014 RMK 1CU035 4AC080 A2996
RJCC 281200Z 18006KT 9999 FEW035 BKN080 BKN/// 15/15 Q1014
RJCC 281230Z 19005KT 9999 FEW035 BKN080 BKN/// 14/14 Q1014 RMK 1CU035 5AC080 A2996
-2
RJCC 281300Z 15003KT 120V180 9999 FEW035 SCT140 BKN/// 14/14 Q1014 RMK 1CU035 3AC140 A2995
RJCC 281330Z 17003KT 9999 FEW035 SCT120 BKN/// 14/14 Q1014 RMK 1CU035 4AC120 A2995
RJCC 281400Z 12004KT 9999 -SHRA FEW035 SCT070 BKN110 14/14 Q1014 RMK 1CU035 4AC070 6AC110 A2995
RJCC 281430Z 17003KT 9999 -SHRA FEW035 SCT070 BKN100 14/14 Q1014 RMK 1CU035 4AC070 6AC100 A2996
RJCC 281500Z 15007KT 9999 -SHRA FEW010 BKN070 BKN100 14/14 Q1014 RMK 1ST010 5AC070 6AC100 A2995
RJCC 281530Z 17004KT 7000 -SHRA FEW010 SCT070 BKN100 14/14 Q1014 RMK 1ST010 4AC070 6AC100 A2995
RJCC 281600Z 16005KT 7000 -SHRA FEW010 BKN035 BKN100 14/14 Q1013 RMK 1ST010 5CU035 6AC100 A2994
RJCC 281630Z 17005KT 7000 FEW010 SCT035 BKN080 14/14 Q1014 RMK 1ST010 4CU035 6AC080 A2994
RJCC 281700Z 17007KT 5000 -SHRA BR FEW004 SCT030 BKN050 14/14 Q1013 RMK 1ST004 3CU030 6CU050 A2994
RJCC 281730Z 14005KT 5000 -SHRA BR FEW003 SCT004 BKN006 15/15 Q1014 RMK 1ST003 3ST004 6ST006 A2995
RJCC 281800Z 14006KT 4000 -SHRA BR FEW003 SCT004 BKN006 15/15 Q1013 RMK 1ST003 3ST004 5ST006 A2994
RJCC 281830Z 16004KT 4000 BR FEW003 BKN035 BKN045 15/15 Q1014 RMK 1ST003 5CU035 7CU045 A2995
RJCC 281900Z 16005KT 4500 BR FEW003 SCT006 BKN045 15/15 Q1014 RMK 1ST003 3ST006 7CU045 A2995
RJCC 281930Z 17005KT 4500 BR FEW003 BKN006 BKN045 15/15 Q1014 RMK 1ST003 5ST006 7CU045 A2995
RJCC 282000Z 19006KT 4000 BR FEW003 SCT006 BKN050 15/15 Q1014 RMK 1ST003 3ST006 7CU050 A2995
RJCC 282030Z 16007KT 4500 BR FEW003 SCT004 BKN045 16/16 Q1014 RMK 1ST003 3ST004 6CU045 A2996
RJCC 282036Z 17007KT 5000 BR FEW003 BKN004 BKN045 16/16 Q1014 RMK 1ST003 5ST004 6CU045 A2996
RJCC 282050Z 17009KT 6000 FEW003 SCT004 BKN045 16/16 Q1014 RMK 1ST003 4ST004 5CU045 A2995
-3
RJCC 282100Z 17009KT 6000 FEW003 SCT045 BKN150 16/16 Q1014 RMK 1ST003 3CU045 7AC150 A2995
RJCC 282130Z 19007KT 8000 FEW005 SCT006 BKN010 16/16 Q1014 RMK 1ST005 3ST006 6ST010 A2996
RJCC 282200Z 16008KT 9999 FEW005 BKN045 16/16 Q1014 RMK 1ST005 7CU045 A2996
RJCC 282223Z 17008KT 9999 FEW005 BKN007 BKN070 17/17 Q1014 RMK 1ST005 5ST007 7AC070 A2997
RJCC 282230Z 17009KT 9999 FEW006 BKN008 BKN070 17/17 Q1014 RMK 1ST006 5ST008 7AC070 A2996
RJCC 282300Z 15011KT 9999 FEW008 BKN010 BKN070 18/17 Q1014 RMK 1ST008 5ST010 7AC070 A2996
RJCC 282330Z 17010KT 9999 FEW008 BKN010 BKN070 18/16 Q1014 RMK 1ST008 6ST010 7AC070 A2995
2017年6月29日00-24UTC 新千歳空港METAR -1

RJCC 290000Z 16010KT 9999 FEW008 BKN011 BKN070 18/17 Q1014 RMK 1ST008 6ST011 7AC070 A2995
RJCC 290030Z 17011KT 9999 FEW008 BKN011 19/17 Q1014 RMK 1ST008 7ST011 A2995
RJCC 290100Z 16011KT 9999 FEW008 SCT011 BKN070 19/16 Q1014 RMK 1ST008 4ST011 7AC070 A2995
RJCC 290130Z 17011KT 9999 FEW010 SCT050 BKN070 20/16 Q1014 RMK 1ST010 3SC050 7AC070 A2994
RJCC 290200Z 16010KT 9999 FEW015 BKN070 19/16 Q1014 RMK 1ST015 7AC070 A2995
RJCC 290230Z 17011KT 9999 FEW015 BKN070 20/16 Q1013 RMK 1ST015 6AC070 A2994
RJCC 290300Z 18011KT 9999 FEW015 SCT070 21/16 Q1013 RMK 1ST015 3AC070 A2993
RJCC 290330Z 15012KT 9999 FEW020 SCT/// 21/16 Q1013 RMK 1CU020 A2993
RJCC 290400Z 16011KT 9999 FEW015 SCT/// 21/17 Q1013 RMK 1ST015 A2992
RJCC 290430Z 17011KT 140V210 9999 FEW015 SCT040 21/16 Q1013 RMK 1ST015 3SC040 A2991
RJCC 290500Z 17012KT 9999 FEW015 BKN040 20/16 Q1012 RMK 1ST015 5SC040 A2991
RJCC 290530Z 17012KT 9999 FEW015 SCT040 20/17 Q1012 RMK 1ST015 4SC040 A2990
RJCC 290600Z 17012KT 9999 FEW015 SCT040 20/16 Q1012 RMK 1ST015 3SC040 A2989
RJCC 290630Z 17011KT 120V200 9999 FEW015 21/17 Q1012 RMK 1ST015 A2989
RJCC 290700Z 15011KT 9999 FEW015 20/17 Q1011 RMK 1ST015 A2988
RJCC 290730Z 16011KT 9999 FEW015 20/16 Q1011 RMK 1ST015 A2988
RJCC 290800Z 17013KT 9999 FEW015 20/16 Q1012 RMK 1ST015 A2988
RJCC 290830Z 17013KT 9999 FEW015 19/16 Q1011 RMK 1ST015 A2988
RJCC 290900Z 17013KT 9999 FEW015 18/17 Q1012 RMK 1ST015 A2988
RJCC 290930Z 15010KT 9999 FEW010 17/17 Q1012 RMK 1ST010 A2988
RJCC 291000Z 15010KT 9999 FEW005 16/16 Q1012 RMK 1ST005 A2989
RJCC 291030Z 15009KT 9999 FEW005 16/16 Q1012 RMK 1ST005 A2989
RJCC 291100Z 15009KT 9999 FEW005 BKN008 16/16 Q1012 RMK 1ST005 6ST008 A2990
RJCC 291123Z 15009KT 8000 FEW005 SCT008 16/16 Q1012 RMK 1ST005 4ST008 A2990
RJCC 291130Z 15010KT 8000 FEW005 SCT008 16/16 Q1012 RMK 1ST005 3ST008 A2990
-2
RJCC 291200Z 15009KT 8000 FEW005 16/16 Q1012 RMK 1ST005 A2990
RJCC 291230Z 15008KT 8000 FEW005 15/15 Q1012 RMK 1ST005 A2990
RJCC 291300Z 14007KT 7000 FEW004 BKN007 15/15 Q1012 RMK 1ST004 6ST007 A2990
RJCC 291305Z 14008KT 7000 FEW003 BKN005 15/15 Q1012 RMK 1ST003 6ST005 A2990
RJCC 291317Z 15007KT 7000 FEW003 BKN004 15/15 Q1012 RMK 1ST003 7ST004 A2990
RJCC 291330Z 14009KT 6000 FEW003 BKN004 16/16 Q1012 RMK 1ST003 7ST004 A2990
RJCC 291400Z 14009KT 5000 BR SCT003 BKN004 15/15 Q1012 RMK 3ST003 7ST004 A2989
RJCC 291430Z 15008KT 4500 BR FEW002 SCT003 BKN004 15/15 Q1012 RMK 1ST002 4ST003 7ST004 A2989
RJCC 291500Z 15008KT 4500 BR FEW003 SCT004 15/15 Q1011 RMK 1ST003 3ST004 A2987
RJCC 291530Z 15010KT 4000 BR FEW003 SCT004 15/15 Q1011 RMK 1ST003 3ST004 A2987
RJCC 291600Z 16011KT 4500 BR FEW004 15/15 Q1011 RMK 2ST004 A2985
RJCC 291630Z 14006KT 4500 BR FEW003 SCT004 15/15 Q1011 RMK 1ST003 3ST004 A2985
RJCC 291700Z 15006KT 4500 BR FEW003 15/15 Q1011 RMK 1ST003 A2985 9999E
RJCC 291730Z 15007KT 5000 BR FEW003 14/14 Q1011 RMK 1ST003 A2986 9999E
RJCC 291800Z 15009KT 5000 BR FEW003 SCT004 15/15 Q1011 RMK 1ST003 3ST004 A2986 9999E
RJCC 291830Z 15009KT 5000 BR FEW003 BKN006 15/15 Q1011 RMK 1ST003 5ST006 A2986 9999E
RJCC 291900Z 15011KT 3000 BR FEW002 BKN003 15/15 Q1011 RMK 1ST002 7ST003 A2986
RJCC 291930Z 15010KT 3000 BR FEW002 BKN003 15/15 Q1011 RMK 1ST002 7ST003 A2987
RJCC 292000Z 15011KT 3500 BR FEW002 BKN003 15/15 Q1011 RMK 1ST002 7ST003 A2987
RJCC 292030Z 16011KT 4000 BR FEW002 BKN003 BKN004 15/15 Q1011 RMK 1ST002 6ST003 7ST004 A2985
-3
RJCC 292100Z 16012KT 4500 BR FEW002 BKN003 BKN004 15/15 Q1010 RMK 1ST002 5ST003 7ST004 A2984
RJCC 292130Z 16013KT 5000 BR FEW003 SCT004 BKN005 16/16 Q1010 RMK 1ST003 3ST004 7ST005 A2985
RJCC 292200Z 18014KT 5000 BR FEW004 BKN005 BKN006 16/16 Q1010 RMK 1ST004 5ST005 7ST006 A2985 9999E
RJCC 292217Z 17014KT 4900 BR FEW003 SCT004 BKN005 15/15 Q1010 RMK 1ST003 3ST004 7ST005 A2985 9999E
RJCC 292230Z 17013KT 3000 BR FEW003 BKN004 BKN005 16/16 Q1010 RMK 1ST003 5ST004 7ST005 A2985 9999NE-E
RJCC 292300Z 17013KT 3200 BR FEW001 SCT002 BKN003 16/16 Q1010 RMK 2ST001 3ST002 7ST003 A2985 9999NE-E
RJCC 292330Z 17013KT 3200 BR FEW002 SCT003 BKN004 16/16 Q1010 RMK 1ST002 3ST003 7ST004 A2984 9999NE-E
2017年6月30日00-24UTC 新千歳空港METAR -1

RJCC 300000Z 17016KT 5000 BR FEW003 SCT004 BKN005 17/17 Q1010 RMK 1ST003 4ST004 7ST005 A2983 9999NE-E
RJCC 300030Z 17016KT 6000 FEW003 SCT004 BKN006 18/17 Q1010 RMK 1ST003 3ST004 6ST006 A2983
RJCC 300048Z 18016KT 9999 FEW004 SCT008 18/17 Q1009 RMK 1ST004 3ST008 A2982
RJCC 300100Z 17015KT 9999 FEW004 19/17 Q1009 RMK 1ST004 A2981
RJCC 300130Z 18012KT 9999 FEW005 20/17 Q1009 RMK 1ST005 A2981
RJCC 300200Z 17014KT 9999 FEW010 21/16 Q1008 RMK 1ST010 A2978
RJCC 300230Z 18015KT 9999 FEW010 22/16 Q1008 RMK 1ST010 A2978
RJCC 300300Z 17017KT 9999 FEW010 22/14 Q1008 RMK 1ST010 A2978
RJCC 300330Z 17017KT 9999 FEW015 22/14 Q1008 RMK 1ST015 A2977
RJCC 300400Z 17017KT 9999 FEW015 SCT/// 22/14 Q1007 RMK 1ST015 A2976
RJCC 300430Z 15016KT 9999 FEW015 BKN/// 23/14 Q1007 RMK 1ST015 A2975
RJCC 300500Z 16013KT 9999 FEW015 BKN/// 23/12 Q1007 RMK 1ST015 A2974
RJCC 300530Z 17018KT 9999 FEW015 BKN/// 23/12 Q1007 RMK 1ST015 A2974
RJCC 300600Z 16015KT 9999 FEW015 BKN/// 22/12 Q1007 RMK 1ST015 A2974
RJCC 300630Z 17016KT 9999 FEW015 BKN/// 21/14 Q1006 RMK 1ST015 A2973
RJCC 300700Z 15013KT CAVOK 21/14 Q1006 RMK A2973
RJCC 300730Z 17015KT CAVOK 20/14 Q1006 RMK A2972
RJCC 300800Z 17012KT CAVOK 20/14 Q1006 RMK A2972
RJCC 300830Z 17011KT CAVOK 19/15 Q1006 RMK A2972
RJCC 300900Z 18014KT 9999 FEW010 19/14 Q1006 RMK 1ST010 A2971
RJCC 300930Z 18013KT 9999 FEW010 18/15 Q1006 RMK 1ST010 A2972
RJCC 301000Z 17011KT 9999 FEW010 17/15 Q1006 RMK 1ST010 A2972
RJCC 301030Z 20007KT 160V230 9999 FEW010 17/16 Q1006 RMK 1ST010 A2973
RJCC 301100Z 17008KT 9999 FEW010 17/16 Q1007 RMK 1ST010 A2974
RJCC 301130Z 16008KT 9999 FEW010 17/16 Q1007 RMK 1ST010 A2974
RJCC 301200Z 16009KT 9999 FEW010 17/17 Q1007 RMK 1ST010 A2974
RJCC 301230Z 15010KT 9999 FEW010 17/17 Q1007 RMK 1ST010 A2974
RJCC 301300Z 15008KT 9999 FEW010 17/17 Q1007 RMK 1ST010 A2974
RJCC 301330Z 14007KT 9999 FEW010 16/16 Q1006 RMK 1ST010 A2973
-2
RJCC 301400Z 15007KT 9999 FEW010 16/16 Q1006 RMK 1ST010 A2972
RJCC 301430Z 17007KT 9999 FEW010 15/15 Q1006 RMK 1ST010 A2972
RJCC 301500Z 15006KT 9999 FEW010 16/16 Q1006 RMK 1ST010 A2971
RJCC 301530Z VRB02KT 9999 FEW010 15/15 Q1006 RMK 1ST010 A2972
RJCC 301600Z 14006KT 9999 FEW010 15/15 Q1006 RMK 1ST010 A2971
RJCC 301630Z 17007KT 9999 FEW010 SCT040 16/16 Q1005 RMK 1ST010 3SC040 A2970
RJCC 301700Z 16007KT 9999 FEW010 BKN040 16/16 Q1005 RMK 1ST010 5SC040 A2969
RJCC 301730Z 16008KT 9999 FEW010 SCT040 16/16 Q1005 RMK 1ST010 3SC040 A2968
RJCC 301800Z 17006KT 9999 FEW010 16/16 Q1005 RMK 1ST010 A2968
RJCC 301830Z VRB01KT 9999 FEW010 SCT040 15/15 Q1005 RMK 1ST010 3SC040 A2969
RJCC 301900Z 16005KT 9999 FEW015 SCT035 16/16 Q1005 RMK 1ST015 3SC035 A2968
RJCC 301930Z 16005KT 9999 FEW015 BKN035 16/16 Q1005 RMK 1ST015 5SC035 A2968
RJCC 302000Z 17007KT 9999 FEW015 SCT035 18/18 Q1005 RMK 1ST015 3SC035 A2968
RJCC 302030Z 16007KT 9999 FEW015 BKN040 18/18 Q1005 RMK 1ST015 5SC040 A2968
RJCC 302100Z 15009KT 9999 FEW015 SCT040 19/19 Q1004 RMK 1ST015 4SC040 A2967
RJCC 302130Z 16008KT 7000 FEW005 BKN007 BKN017 19/19 Q1004 RMK 1ST005 5ST007 7ST017 A2967
RJCC 302200Z 17009KT 8000 FEW005 BKN008 BKN017 20/20 Q1004 RMK 1ST005 5ST008 7ST017 A2967
RJCC 302230Z 17011KT 9999 FEW005 BKN008 BKN017 20/20 Q1004 RMK 1ST005 6ST008 7ST017 A2966
RJCC 302242Z 18013KT 9999 FEW005 SCT008 BKN019 21/21 Q1004 RMK 1ST005 4ST008 7ST019 A2967
RJCC 302300Z 18013KT 9999 FEW006 SCT009 BKN019 21/20 Q1004 RMK 1ST006 3ST009 6ST019 A2966
RJCC 302330Z 18012KT 9999 FEW006 SCT010 BKN018 22/21 Q1004 RMK 1ST006 3ST010 6ST018 A2966
2017年7月1日00-24UTC 新千歳空港METAR -1

RJCC 010000Z 17012KT 9999 FEW006 BKN015 23/20 Q1004 RMK 1ST006 6ST015 A2966
RJCC 010030Z 17012KT 9999 FEW015 SCT/// 23/21 Q1004 RMK 2ST015 A2965
RJCC 010100Z 17013KT 9999 FEW015 SCT/// 24/20 Q1003 RMK 1ST015 A2964
RJCC 010130Z 17012KT 9999 FEW015 25/21 Q1003 RMK 1ST015 A2962
RJCC 010200Z 16014KT 9999 FEW020 25/20 Q1003 RMK 1CU020 A2962
RJCC 010230Z 17015KT 9999 FEW020 25/21 Q1002 RMK 1CU020 A2961
RJCC 010300Z 17014KT 9999 FEW020 25/21 Q1002 RMK 1CU020 A2961
RJCC 010330Z 18015KT 9999 FEW030 SCT100 26/20 Q1002 RMK 1CU030 3AC100 A2961
RJCC 010400Z 18016KT 9999 FEW030 25/20 Q1002 RMK 1CU030 A2960
RJCC 010430Z 17013KT 9999 FEW030 SCT/// 25/21 Q1002 RMK 1CU030 A2960
RJCC 010500Z 17014KT 9999 FEW030 25/21 Q1002 RMK 1CU030 A2960
RJCC 010530Z 16012KT 9999 FEW030 SCT050 24/21 Q1002 RMK 1CU030 3CU050 A2959
RJCC 010600Z 15012KT 9999 FEW030 BKN050 BKN/// 24/20 Q1002 RMK 1CU030 6CU050 A2959
RJCC 010630Z 17011KT 9999 FEW030 BKN050 BKN/// 24/21 Q1002 RMK 1CU030 6CU050 A2959
RJCC 010700Z 15010KT 9999 FEW030 BKN060 BKN/// 23/20 Q1002 RMK 1CU030 6CU060 A2959
RJCC 010730Z 15010KT 9999 VCSH FEW030 BKN060 23/20 Q1002 RMK 1CU030 7CU060 A2959 SH NW-N
RJCC 010800Z 16010KT 9999 VCSH FEW030 BKN045 BKN/// 22/21 Q1002 RMK 1CU030 6CU045 A2960 SH NE-E
RJCC 010830Z 14008KT 9999 VCSH FEW030 BKN050 BKN/// 22/21 Q1002 RMK 1CU030 6CU050 A2960 SH E
RJCC 010900Z 14007KT 9999 FEW030 SCT050 BKN080 22/21 Q1002 RMK 1CU030 3CU050 7AC080 A2961
RJCC 010930Z 12005KT 9999 FEW030 BKN080 BKN120 22/21 Q1002 RMK 1CU030 6AC080 7AC120 A2960
RJCC 011000Z 14005KT 9999 FEW030 BKN090 21/21 Q1002 RMK 1CU030 7AC090 A2961
RJCC 011030Z 13006KT 9999 FEW030 BKN090 BKN130 21/21 Q1003 RMK 1CU030 6AC090 7AC130 A2962
RJCC 011100Z 15006KT 9999 FEW030 BKN090 21/21 Q1003 RMK 1CU030 7AC090 A2963
RJCC 011130Z 19004KT 160V220 9999 FEW030 SCT090 20/20 Q1004 RMK 1CU030 4AC090 A2965
-2
RJCC 011200Z 13004KT 9999 FEW020 20/20 Q1004 RMK 1CU020 A2965
RJCC 011230Z 14004KT 9999 FEW020 19/19 Q1004 RMK 1CU020 A2965
RJCC 011300Z VRB02KT 9999 FEW020 SCT100 19/19 Q1004 RMK 1CU020 3AC100 A2965
RJCC 011330Z 14003KT 9999 FEW020 18/18 Q1004 RMK 1CU020 A2966
RJCC 011400Z 15004KT 9999 FEW020 18/18 Q1003 RMK 1CU020 A2964
RJCC 011430Z 16004KT 9999 FEW020 SCT060 18/18 Q1003 RMK 1CU020 4SC060 A2964
RJCC 011500Z 14003KT 100V170 9999 FEW020 SCT120 BKN150 19/19 Q1003 RMK 1CU020 3AC120 5AC150 A2963
RJCC 011530Z 13006KT 9999 FEW015 BKN060 19/19 Q1003 RMK 1ST015 6SC060 A2963
RJCC 011600Z 13008KT 9999 FEW010 SCT060 BKN120 19/19 Q1002 RMK 1ST010 3SC060 5AC120 A2961
RJCC 011630Z 14008KT 8000 FEW010 SCT120 19/19 Q1002 RMK 1ST010 4AC120 A2961
RJCC 011700Z 14006KT 8000 FEW005 SCT060 BKN120 18/18 Q1002 RMK 1ST005 3SC060 5AC120 A2961
RJCC 011730Z 13006KT 8000 FEW005 SCT150 18/18 Q1002 RMK 1ST005 4AC150 A2961
RJCC 011800Z 15006KT 7000 FEW005 BKN060 18/18 Q1003 RMK 1ST005 5SC060 A2962
RJCC 011830Z 14005KT 6000 FEW005 SCT060 BKN130 18/18 Q1003 RMK 1ST005 4SC060 5AC130 A2962
RJCC 011900Z 14005KT 5000 BR FEW005 BKN060 BKN120 18/18 Q1003 RMK 1ST005 5SC060 6AC120 A2963
RJCC 011930Z 14006KT 5000 BR FEW003 SCT110 BKN/// 18/18 Q1003 RMK 1ST003 4AC110 A2963
RJCC 012000Z 15007KT 6000 FEW003 SCT060 BKN110 18/18 Q1003 RMK 1ST003 4SC060 6AC110 A2964
RJCC 012030Z 14005KT 6000 FEW003 BKN070 18/18 Q1003 RMK 1ST003 7AC070 A2964
RJCC 012100Z 15009KT 7000 FEW003 BKN070 BKN120 20/20 Q1003 RMK 1ST003 5AC070 7AC120 A2964
RJCC 012130Z 17010KT 9999 FEW003 SCT060 BKN130 20/20 Q1004 RMK 1ST003 3SC060 7AC130 A2965
RJCC 012200Z 14007KT 9999 FEW003 SCT070 BKN130 20/20 Q1004 RMK 1ST003 3AC070 7AC130 A2966
RJCC 012230Z 16011KT 9999 FEW007 SCT050 BKN130 20/20 Q1004 RMK 2ST007 3SC050 7AC130 A2966
RJCC 012300Z 14008KT 9999 FEW007 SCT045 BKN090 20/20 Q1004 RMK 1ST007 4SC045 6AC090 A2966
RJCC 012330Z 15009KT 130V190 9999 FEW008 BKN045 BKN090 22/21 Q1004 RMK 1ST008 6SC045 7AC090 A2966
2017年7月2日00-24UTC 新千歳空港METAR -1

RJCC 020000Z 17011KT 9999 FEW008 SCT040 BKN050 21/21 Q1004 RMK 1ST008 4CU040 7CU050 A2965
RJCC 020030Z 16010KT 9999 FEW009 SCT040 BKN050 22/22 Q1004 RMK 1ST009 4CU040 7CU050 A2965
RJCC 020100Z 16009KT 9999 FEW008 SCT009 BKN050 21/21 Q1003 RMK 1ST008 4ST009 7CU050 A2964
RJCC 020130Z 15009KT 9999 FEW008 BKN050 22/22 Q1003 RMK 1ST008 5CU050 A2963
RJCC 020200Z 16011KT 9999 FEW008 BKN060 24/21 Q1003 RMK 1ST008 5CU060 A2963
RJCC 020230Z 18011KT 9999 FEW015 BKN060 25/21 Q1003 RMK 1ST015 7CU060 A2962
RJCC 020300Z 18009KT 140V210 9999 FEW015 SCT045 BKN060 24/21 Q1003 RMK 1ST015 4CU045 7CU060 A2962
RJCC 020330Z 17008KT 9999 FEW015 BKN045 BKN060 24/21 Q1002 RMK 1ST015 5CU045 7CU060 A2961
RJCC 020400Z 15008KT 9999 FEW015 SCT035 BKN045 24/21 Q1003 RMK 1ST015 3CU035 6CU045 A2962
RJCC 020430Z 15006KT 9999 FEW015 SCT030 BKN045 23/21 Q1002 RMK 1ST015 3CU030 6CU045 A2961
RJCC 020500Z 13006KT 090V170 9999 FEW015 SCT030 BKN045 24/20 Q1003 RMK 1ST015 3CU030 5CU045 A2962
RJCC 020530Z 07004KT 040V100 9999 FEW010 SCT020 BKN045 25/21 Q1003 RMK 1ST010 3CU020 6CU045 A2962
RJCC 020600Z 36009KT 9999 FEW010 SCT015 BKN020 24/22 Q1003 RMK 1ST010 3ST015 6CU020 A2962
RJCC 020630Z 36014KT 9999 FEW010 SCT015 BKN020 24/21 Q1003 RMK 1ST010 3ST015 6CU020 A2964
RJCC 020700Z 35016KT 9999 FEW010 SCT020 BKN040 22/20 Q1004 RMK 1ST010 4CU020 6CU040 A2965
RJCC 020730Z 35016KT 9999 FEW008 BKN010 21/20 Q1004 RMK 1ST008 7ST010 A2966
RJCC 020800Z 36014KT 9999 FEW008 BKN009 20/20 Q1004 RMK 1ST008 7ST009 A2966
RJCC 020830Z 35012KT 9999 FEW008 BKN009 20/20 Q1004 RMK 1ST008 7ST009 A2967
RJCC 020900Z 35013KT 9999 FEW007 BKN008 BKN009 19/19 Q1005 RMK 1ST007 5ST008 7ST009 A2968
RJCC 020930Z 36012KT 9999 FEW005 SCT007 BKN008 18/18 Q1005 RMK 1ST005 4ST007 6ST008 A2969
RJCC 021000Z 36011KT 9999 FEW005 SCT007 BKN008 18/18 Q1005 RMK 1ST005 4ST007 6ST008 A2970
RJCC 021030Z 36009KT 9999 FEW005 BKN007 BKN008 18/18 Q1006 RMK 1ST005 5ST007 7ST008 A2971
-2
RJCC 021100Z 36011KT 9999 FEW005 BKN007 BKN008 18/18 Q1006 RMK 1ST005 6ST007 7ST008 A2972
RJCC 021130Z 35010KT 9999 FEW005 BKN007 17/17 Q1006 RMK 1ST005 7ST007 A2973
RJCC 021200Z 36010KT 9999 FEW005 SCT006 BKN007 17/17 Q1007 RMK 1ST005 3ST006 7ST007 A2974
RJCC 021230Z 36009KT 9999 FEW005 BKN006 BKN007 17/17 Q1006 RMK 1ST005 5ST006 7ST007 A2973
RJCC 021300Z 36009KT 9999 FEW005 BKN006 17/17 Q1006 RMK 2ST005 7ST006 A2973
RJCC 021330Z 36010KT 9999 SCT005 BKN006 17/17 Q1007 RMK 4ST005 7ST006 A2974
RJCC 021400Z 35009KT 9999 SCT005 BKN006 17/17 Q1007 RMK 4ST005 7ST006 A2974
RJCC 021430Z 35010KT 9999 FEW005 BKN006 17/17 Q1006 RMK 2ST005 7ST006 A2973
RJCC 021500Z 35009KT 9999 -DZ FEW004 SCT005 BKN006 16/16 Q1006 RMK 1ST004 3ST005 7ST006 A2973
RJCC 021530Z 34009KT 8000 -DZ FEW004 BKN005 BKN006 16/16 Q1006 RMK 1ST004 6ST005 7ST006 A2972
RJCC 021600Z 35009KT 9999 -DZ FEW004 SCT005 BKN006 16/16 Q1006 RMK 1ST004 4ST005 7ST006 A2972
RJCC 021630Z 34010KT 9999 FEW004 SCT005 BKN006 17/17 Q1006 RMK 1ST004 3ST005 7ST006 A2972
RJCC 021700Z 34009KT 9999 FEW004 BKN006 17/17 Q1006 RMK 1ST004 7ST006 A2971
RJCC 021730Z 34008KT 9999 FEW004 BKN006 17/17 Q1006 RMK 1ST004 7ST006 A2971
RJCC 021800Z 33008KT 9999 FEW004 BKN006 16/16 Q1006 RMK 1ST004 7ST006 A2971
RJCC 021830Z 34008KT 9999 FEW004 BKN006 16/16 Q1006 RMK 1ST004 7ST006 A2972
RJCC 021900Z 34008KT 9999 FEW004 BKN006 16/16 Q1006 RMK 1ST004 7ST006 A2972
RJCC 021930Z 35008KT 9999 FEW004 SCT005 BKN006 16/16 Q1006 RMK 1ST004 4ST005 7ST006 A2972
RJCC 022000Z 35008KT 9999 SCT004 BKN005 16/16 Q1006 RMK 3ST004 7ST005 A2972
RJCC 022030Z 35010KT 9999 FEW004 SCT005 BKN006 17/17 Q1006 RMK 1ST004 3ST005 7ST006 A2972
-3
RJCC 022100Z 34009KT 9999 FEW004 SCT005 BKN006 17/17 Q1006 RMK 2ST004 4ST005 7ST006 A2972
RJCC 022130Z 34008KT 9999 SCT004 BKN005 17/17 Q1006 RMK 3ST004 7ST005 A2973
RJCC 022200Z 35008KT 9999 -DZ FEW003 BKN004 BKN005 17/17 Q1006 RMK 1ST003 5ST004 7ST005 A2972
RJCC 022230Z 34008KT 9999 FEW003 SCT004 BKN005 17/17 Q1006 RMK 1ST003 4ST004 6ST005 A2972
RJCC 022242Z 36008KT 320V030 9999 FEW003 SCT005 BKN006 17/17 Q1006 RMK 1ST003 4ST005 6ST006 A2972
RJCC 022300Z 01008KT 9999 FEW004 SCT006 BKN007 18/18 Q1006 RMK 1ST004 3ST006 6ST007 A2972
RJCC 022330Z 34007KT 9999 FEW005 SCT007 BKN009 18/18 Q1006 RMK 1ST005 4ST007 6ST009 A2971
2017年7月3日00-24UTC 新千歳空港METAR -1

RJCC 030000Z 34006KT 310V010 9999 FEW005 BKN009 BKN010 19/18 Q1005 RMK 1ST005 5ST009 7ST010 A2970
RJCC 030017Z 34007KT 300V010 9999 FEW006 SCT009 BKN010 19/18 Q1005 RMK 1ST006 4ST009 7ST010 A2970
RJCC 030030Z 35007KT 320V020 9999 FEW008 BKN010 BKN/// 19/18 Q1005 RMK 1ST008 6ST010 A2969
RJCC 030100Z 34007KT 300V030 9999 FEW010 BKN160 BKN/// 20/18 Q1005 RMK 2ST010 5AC160 A2968
RJCC 030130Z 33005KT 270V010 9999 FEW010 BKN160 OVC/// 21/18 Q1005 RMK 1ST010 5AC160 A2968
RJCC 030200Z 36004KT 300V040 9999 FEW020 SCT060 BKN160 21/18 Q1004 RMK 1CU020 3CU060 7AC160 A2967
RJCC 030230Z 01003KT 300V070 9999 FEW020 SCT060 BKN150 22/17 Q1004 RMK 1CU020 3CU060 6AC150 A2966
RJCC 030300Z VRB02KT 9999 FEW020 BKN130 23/18 Q1004 RMK 1CU020 7AC130 A2966
RJCC 030330Z VRB02KT 9999 FEW020 BKN130 23/19 Q1004 RMK 1CU020 7AC130 A2965
RJCC 030400Z 18008KT 9999 FEW010 BKN130 22/18 Q1004 RMK 1ST010 7AC130 A2965
RJCC 030430Z 15007KT 9999 -SHRA FEW010 BKN120 21/19 Q1003 RMK 1ST010 7AC120 A2964
RJCC 030500Z 17010KT 9999 -SHRA FEW010 SCT060 BKN120 20/19 Q1003 RMK 1ST010 3CU060 7AC120 A2964
RJCC 030530Z 17012KT 9999 -SHRA FEW006 BKN008 BKN120 18/18 Q1003 RMK 1ST006 5ST008 7AC120 A2964
RJCC 030600Z 17011KT 8000 -SHRA FEW005 BKN006 18/18 Q1003 RMK 1ST005 6ST006 A2964
RJCC 030622Z 18012KT 8000 -SHRA FEW003 BKN005 18/18 Q1003 RMK 1ST003 7ST005 A2964
RJCC 030630Z 17012KT 8000 -SHRA FEW003 BKN005 18/18 Q1003 RMK 1ST003 7ST005 A2964
RJCC 030700Z 17011KT 7000 -SHRA FEW002 BKN004 17/17 Q1003 RMK 1ST002 7ST004 A2963
RJCC 030730Z 17010KT 4900 -SHRA BR FEW002 BKN004 17/17 Q1003 RMK 1ST002 7ST004 A2964
RJCC 030800Z 17009KT 4500 -SHRA BR FEW001 BKN003 17/17 Q1003 RMK 1ST001 7ST003 A2963
RJCC 030830Z 17009KT 5000 -SHRA BR FEW001 BKN003 BKN005 17/17 Q1003 RMK 1ST001 5ST003 7ST005 A2963
RJCC 030900Z 15009KT 6000 -SHRA FEW001 BKN003 BKN005 16/16 Q1003 RMK 1ST001 6ST003 7ST005 A2963
RJCC 030930Z 16006KT 5000 -SHRA BR FEW001 BKN003 BKN005 16/16 Q1003 RMK 1ST001 6ST003 7ST005 A2963
-2
RJCC 031000Z 19006KT 5000 -SHRA BR FEW001 BKN003 BKN005 16/16 Q1003 RMK 1ST001 6ST003 7ST005 A2964
RJCC 031030Z 20005KT 5000 -SHRA BR FEW001 BKN003 BKN005 16/16 Q1003 RMK 1ST001 6ST003 7ST005 A2964
RJCC 031100Z 22006KT 5000 -SHRA BR FEW002 BKN003 BKN005 16/16 Q1004 RMK 1ST002 5ST003 7ST005 A2965
RJCC 031130Z 21006KT 6000 -SHRA FEW002 SCT003 BKN008 16/16 Q1004 RMK 1ST002 3ST003 6ST008 A2966
RJCC 031200Z 21004KT 9999 -SHRA FEW003 SCT006 BKN009 16/16 Q1004 RMK 1ST003 3ST006 6ST009 A2966
RJCC 031222Z 20004KT 9999 -SHRA FEW003 SCT009 BKN014 16/16 Q1004 RMK 1ST003 4ST009 6ST014 A2965
RJCC 031230Z 20004KT 9999 -SHRA FEW003 SCT009 BKN014 16/16 Q1004 RMK 1ST003 3ST009 6ST014 A2965
RJCC 031300Z 20003KT 9999 -SHRA FEW004 SCT009 BKN014 16/16 Q1004 RMK 1ST004 4ST009 6ST014 A2965
RJCC 031330Z 18004KT 5000 -SHRA BR FEW004 BKN010 BKN030 16/16 Q1004 RMK 1ST004 5ST010 7CU030 A2965
RJCC 031400Z 19004KT 9999 -SHRA FEW003 BKN010 BKN040 16/16 Q1003 RMK 1ST003 5ST010 7CU040 A2964
RJCC 031430Z 19004KT 9999 -SHRA FEW003 BKN010 16/16 Q1003 RMK 1ST003 7ST010 A2964
RJCC 031500Z 17004KT 9999 -SHRA FEW003 BKN010 BKN014 16/16 Q1003 RMK 1ST003 6ST010 7ST014 A2963
RJCC 031530Z 18005KT 8000 -SHRA FEW003 BKN009 BKN014 16/16 Q1003 RMK 1ST003 5ST009 7ST014 A2964
RJCC 031600Z 18005KT 8000 -SHRA FEW003 SCT009 BKN014 17/17 Q1003 RMK 1ST003 4ST009 7ST014 A2964
RJCC 031630Z 18006KT 5000 SHRA BR FEW003 SCT008 BKN014 17/17 Q1003 RMK 1ST003 3ST008 7ST014 A2964
RJCC 031700Z 17006KT 5000 -SHRA BR FEW002 SCT003 BKN010 17/17 Q1003 RMK 1ST002 4ST003 6ST010 A2964
RJCC 031730Z 17005KT 5000 -SHRA BR FEW002 BKN003 BKN010 17/17 Q1003 RMK 1ST002 6ST003 7ST010 A2964
RJCC 031800Z 17006KT 4500 -SHRA BR FEW002 BKN003 BKN004 17/17 Q1003 RMK 1ST002 6ST003 7ST004 A2964
RJCC 031830Z 17008KT 3000 -SHRA BR FEW002 BKN003 BKN018 16/16 Q1004 RMK 1ST002 6ST003 7ST018 A2965
-3
RJCC 031900Z 20009KT 4000 -SHRA BR FEW002 BKN003 BKN018 16/16 Q1004 RMK 1ST002 6ST003 7ST018 A2966
RJCC 031930Z 19006KT 5000 -SHRA BR FEW001 BKN003 BKN014 16/16 Q1004 RMK 1ST001 6ST003 7ST014 A2967
RJCC 032000Z 19006KT 2000 R19R/P1800N R19L/P1800N SHRA BR FEW001 BKN003 BKN014 16/16 Q1005
RJCC 032003Z 19006KT 2000 R19R/P1800N R19L/P1800N +SHRA BR FEW001 BKN003 BKN014 16/16 Q1005 RMK 1ST001 6ST003 7ST014 A2968
RJCC 032019Z 19006KT 2400 R19R/P1800N R19L/P1800N SHRA BR FEW001 BKN003 BKN014 16/16 Q1005 RMK 1ST001 5ST003 7ST014 A2968
RJCC 032030Z 19006KT 3000 SHRA BR FEW001 BKN003 BKN014 16/16 Q1005 RMK 1ST001 5ST003 6ST014 A2968
RJCC 032038Z 19006KT 2300 -SHRA BR FEW001 SCT003 BKN014 16/16 Q1005 RMK 1ST001 4ST003 6ST014 A2969
RJCC 032046Z 19005KT 2000 R19R/P1800N R19L/P1800N SHRA BR FEW001 SCT003 BKN014 16/16 Q1005 RMK 1ST001 3ST003 5ST014 A2969
RJCC 032100Z 18006KT 5000 R19R/P1800N R19L/P1800N SHRA BR FEW001 SCT003 BKN014 16/16 Q1005 RMK 1ST001 3ST003 5ST014 A2969
RJCC 032113Z 17005KT 6000 -SHRA FEW003 BKN014 BKN020 16/16 Q1005 RMK 2ST003 5ST014 7CU020 A2969
RJCC 032130Z 16006KT 5000 -SHRA BR FEW003 BKN014 BKN020 16/16 Q1005 RMK 2ST003 5ST014 7CU020 A2969
RJCC 032141Z 17007KT 4900 -SHRA BR FEW003 SCT009 BKN014 16/16 Q1005 RMK 2ST003 4ST009 6ST014 A2970
RJCC 032147Z 17007KT 3100 -SHRA BR FEW002 BKN003 BKN008 16/16 Q1005 RMK 1ST002 5ST003 6ST008 A2969
-4
RJCC 032200Z 16006KT 3000 -SHRA BR FEW002 BKN003 BKN008 16/16 Q1005 RMK 1ST002 5ST003 6ST008 A2970
RJCC 032205Z 15006KT 3000 R19R/1600VP1800N R19L/P1800N SHRA BR FEW002 BKN003 BKN008 16/16 Q1005 RMK 1ST002 5ST003 6ST008 A2970
RJCC 032230Z 14007KT 3200 SHRA BR FEW002 BKN003 BKN008 16/16 Q1005 RMK 1ST002 6ST003 7ST008 A2970
RJCC 032247Z 15008KT 3100 R19R/P1800N R19L/P1800N +SHRA BR FEW002 BKN003 BKN008 16/16 Q1005 RMK 1ST002 6ST003 7ST008 A2970
RJCC 032300Z 15009KT 4000 -SHRA BR FEW002 BKN003 BKN008 17/17 Q1005 RMK 1ST002 5ST003 6ST008 A2970
RJCC 032316Z 16009KT 5000 -SHRA BR FEW002 BKN003 BKN008 17/17 Q1006 RMK 1ST002 5ST003 6ST008 A2971
RJCC 032330Z 16010KT 8000 -SHRA FEW002 BKN003 BKN010 17/17 Q1005 RMK 1ST002 6ST003 7ST010 A2970
2017年7月4日00-24UTC 新千歳空港METAR -1

RJCC 040000Z 17012KT 9999 -SHRA FEW002 BKN003 BKN005 17/17 Q1006 RMK 1ST002 5ST003 6ST005 A2971
RJCC 040025Z 19012KT 9999 -SHRA FEW002 BKN005 BKN008 17/17 Q1006 RMK 1ST002 5ST005 6ST008 A2971
RJCC 040030Z 18012KT 9999 -SHRA FEW003 BKN005 BKN008 17/17 Q1006 RMK 1ST003 5ST005 6ST008 A2972
RJCC 040100Z 18011KT 9999 -SHRA FEW002 SCT004 BKN005 17/17 Q1006 RMK 1ST002 3ST004 6ST005 A2971
RJCC 040117Z 18011KT 9000 -SHRA FEW002 BKN004 BKN005 17/17 Q1006 RMK 1ST002 5ST004 6ST005 A2972
RJCC 040130Z 18012KT 9999 -SHRA FEW002 SCT004 BKN005 16/16 Q1006 RMK 1ST002 4ST004 6ST005 A2972
RJCC 040200Z 17012KT 9999 -SHRA FEW003 BKN005 BKN008 16/16 Q1006 RMK 1ST003 5ST005 6ST008 A2972
RJCC 040230Z 18013KT 9999 -SHRA FEW003 BKN005 BKN008 16/16 Q1006 RMK 1ST003 5ST005 6ST008 A2972
RJCC 040248Z 18012KT 9999 FEW003 BKN006 BKN008 16/16 Q1006 RMK 1ST003 5ST006 7ST008 A2972
RJCC 040300Z 18011KT 9999 FEW004 BKN006 BKN008 16/16 Q1006 RMK 1ST004 5ST006 7ST008 A2972
RJCC 040330Z 18013KT 9999 FEW003 BKN005 BKN007 16/16 Q1006 RMK 1ST003 5ST005 7ST007 A2972
RJCC 040400Z 18013KT 9999 -SHRA FEW003 BKN004 BKN006 16/16 Q1006 RMK 1ST003 5ST004 7ST006 A2972
RJCC 040430Z 19013KT 9999 FEW003 BKN004 BKN006 16/16 Q1006 RMK 1ST003 5ST004 7ST006 A2972
RJCC 040500Z 18011KT 9999 FEW003 SCT004 BKN005 17/17 Q1006 RMK 1ST003 4ST004 7ST005 A2972
RJCC 040530Z 18012KT 9999 FEW003 SCT004 BKN005 17/17 Q1006 RMK 1ST003 4ST004 7ST005 A2971
RJCC 040600Z 19012KT 9999 FEW003 SCT004 BKN005 17/17 Q1006 RMK 1ST003 3ST004 7ST005 A2971
RJCC 040613Z 18011KT 7000 -DZ FEW003 BKN004 BKN005 17/17 Q1006 RMK 1ST003 5ST004 7ST005 A2971
RJCC 040630Z 18012KT 6000 -DZ FEW003 BKN004 BKN005 16/16 Q1006 RMK 1ST003 6ST004 7ST005 A2971
RJCC 040700Z 18009KT 6000 -DZ FEW003 BKN004 BKN005 16/16 Q1006 RMK 2ST003 6ST004 7ST005 A2971
RJCC 040730Z 18011KT 6000 FEW003 BKN004 BKN005 17/17 Q1005 RMK 1ST003 6ST004 7ST005 A2970
RJCC 040743Z 16011KT 4900 -DZ BR FEW003 BKN004 BKN005 16/16 Q1006 RMK 1ST003 6ST004 7ST005 A2971
-2
RJCC 040749Z 17011KT 3100 -DZ BR FEW003 BKN004 BKN005 16/16 Q1006 RMK 2ST003 6ST004 7ST005 A2971
RJCC 040800Z 17010KT 2300 -DZ BR FEW002 SCT003 BKN004 16/16 Q1005 RMK 1ST002 4ST003 7ST004 A2970
RJCC 040830Z 17009KT 2000 -DZ BR FEW002 BKN003 BKN004 16/16 Q1005 RMK 2ST002 5ST003 7ST004 A2970
RJCC 040900Z 17008KT 1600 -DZ BR FEW001 SCT002 BKN003 16/16 Q1005 RMK 1ST001 3ST002 7ST003 A2970
RJCC 040930Z 17007KT 1400 R19R/P1800N R19L/P1800N -DZ BR FEW001 BKN002 BKN003 16/16 Q1006 RMK 2ST001 5ST002 7ST003 A2971
RJCC 040944Z 18008KT 0900 R19R/P1800N R19L/P1800N DZ VV002 16/16 Q1005 RMK A2970
RJCC 041000Z 17006KT 0600 R19R/P1800N R19L/P1800N FG VV002 16/16 Q1006 RMK A2971
RJCC 041008Z 16005KT 0700 R19R/P1800N R19L/1700D FG VV002 16/16 Q1006 RMK A2971
RJCC 041013Z 16006KT 0700 R19R/1300VP1800D R19L/1300V1800D FG VV002 16/16 Q1006 RMK A2971
RJCC 041015Z 17006KT 0700 R19R/1300VP1800D R19L/1300V1800D FG VV002 16/16 Q1006 RMK A2971
RJCC 041022Z 18006KT 0700 R19R/1400VP1800U R19L/1200V1700D FG VV002 15/15 Q1006 RMK A2971
RJCC 041028Z 18005KT 0700 R19R/1300VP1800D R19L/1200V1700U FG VV002 15/15 Q1006 RMK A2971
RJCC 041030Z 17004KT 0700 R19R/1200VP1800D R19L/1300V1700U FG VV002 15/15 Q1006 RMK A2971
RJCC 041036Z 17005KT 0600 R19R/1200D R19L/1200V1700D FG VV002 15/15 Q1006 RMK A2971
RJCC 041100Z 17004KT 0600 R19R/1200VP1800N R19L/0900N FG VV002 16/16 Q1006
RJCC 041109Z 16005KT 0600 R19R/0800VP1800D R19L/0900N FG VV002 15/15 Q1006 RMK A2972
RJCC 041111Z 15005KT 0600 R19R/0700VP1800D R19L/0900N FG VV002 16/16 Q1006 RMK A2972
RJCC 041121Z 16005KT 0500 R19R/0800N R19L/0750V0900N FG VV002 15/15 Q1006 RMK A2972
RJCC 041130Z 16004KT 0500 R19R/0800N R19L/0800N FG VV002 16/16 Q1006 RMK A2972
RJCC 041134Z 16005KT 0500 R19R/0750V0900N R19L/0800N FG VV002 16/16 Q1006 RMK A2973
RJCC 041137Z 16005KT 0400 R19R/0750N R19L/0700V0900N FG VV002 16/16 Q1006 RMK A2973
RJCC 041146Z 15004KT 120V180 0400 R19R/0700N R19L/0800N FG VV002 16/16 Q1006 RMK A2973
-3
RJCC 041200Z 16004KT 110V180 0400 R19R/0750N R19L/0700N FG VV002 15/15 Q1006 RMK A2973
RJCC 041230Z 15004KT 0500 R19R/0650N R19L/0700N FG VV002 15/15 Q1006 RMK A2972
RJCC 041241Z 15005KT 0400 R19R/0700V0900U R19L/0800N FG VV002 16/16 Q1006 RMK A2972
RJCC 041245Z 15005KT 0400 R19R/0800N R19L/0800V1000U FG VV002 15/15 Q1006 RMK A2972
RJCC 041300Z 15005KT 0500 R19R/0900V1400U R19L/1100N FG VV002 15/15 Q1006
RJCC 041310Z 16005KT 0500 R19R/0800V1200N R19L/1000D FG VV002 15/15 Q1006 RMK A2972
RJCC 041318Z 16005KT 0500 R19R/0750V1000N R19L/0800V1000N FG VV002 15/15 Q1006 RMK A2972
RJCC 041330Z 16005KT 0500 R19R/0750V1000N R19L/0900U FG VV002 15/15 Q1006 RMK A2972
RJCC 041340Z 16006KT 0500 R19R/0750V0900N R19L/0900N FG VV002 15/15 Q1006 RMK A2972
RJCC 041349Z 16007KT 0500 R19R/0800N R19L/0900N FG VV002 15/15 Q1006 RMK A2972
RJCC 041400Z 16007KT 0600 R19R/0650V1000D R19L/0700V1000D FG VV002 15/15 Q1006 RMK A2972
RJCC 041430Z 17007KT 0600 R01L/0900V1200U R01R/0800U FG VV002 15/15 Q1006 RMK A2972
RJCC 041500Z 15006KT 0800 R01L/0800V1200U R01R/1000VP1800U FG VV002 15/15 Q1006
RJCC 041530Z 16005KT 0800 R01L/1800U R01R/1700U FG VV002 15/15 Q1006 RMK A2971
RJCC 041600Z 16004KT 1500 R19R/1400VP1800U R19L/P1800N BR FEW001 BKN002 15/15 Q1006 RMK 1ST001 7ST002 A2971
RJCC 041630Z 15004KT 1500 R19R/1200V1800D R19L/0900V1200U BCFG BR FEW001 BKN002 15/15 Q1005 RMK 1ST001 7ST002 A2970
RJCC 041700Z 15004KT 0600 R19R/0700V0900N R19L/0900N FG VV002 16/16 Q1005
RJCC 041730Z 16005KT 0500 R19R/0600N R19L/0650N FG VV002 16/16 Q1005 RMK A2970
RJCC 041800Z 16006KT 0500 R19R/0650N R01R/0700N FG VV002 16/16 Q1005 RMK A2970
RJCC 041830Z 16005KT 0500 R19R/0700N R01R/0800N FG VV002 16/16 Q1006 RMK A2971
RJCC 041900Z 17006KT 0400 R19R/0750V1100D R01R/0800N FG VV002 16/16 Q1006
RJCC 041930Z 16004KT 0300 R19R/0450N R01R/0500V0600N FG VV002 16/16 Q1006 RMK A2972
-4
RJCC 042000Z 10001KT 0500 R19R/0750V1400U R19L/0900V1100N FG VV002 16/16 Q1006 RMK A2972
RJCC 042030Z 00000KT 1200 R19R/1000VP1800U R19L/P1800N BCFG BR FEW001 BKN002 BKN003 16/16 Q1006 RMK 1ST001 5ST002 7ST003 A2972
RJCC 042042Z 00000KT 1500 R19R/P1800N R19L/P1800N BCFG BR FEW001 BKN002 BKN003 16/16 Q1006 RMK 1ST001 5ST002 7ST003 A2972
RJCC 042100Z 21001KT 1500 R19R/P1800N R19L/P1800N BCFG BR FEW001 BKN002 BKN003 16/16 Q1006 RMK 1ST001 5ST002 7ST003 A2972
RJCC 042120Z 26003KT 1600 BCFG BR FEW001 SCT002 BKN003 16/16 Q1006 RMK 1ST001 4ST002 7ST003 A2972
RJCC 042130Z VRB02KT 2000 BCFG BR FEW001 SCT002 BKN003 16/16 Q1006 RMK 1ST001 3ST002 7ST003 A2973
RJCC 042138Z 32003KT 2400 BCFG BR FEW001 SCT002 BKN003 16/16 Q1006 RMK 1ST001 3ST002 7ST003 A2973
RJCC 042143Z 33003KT 3200 BCFG BR FEW002 BKN003 BKN004 16/16 Q1006 RMK 2ST002 5ST003 7ST004 A2973
RJCC 042200Z 34004KT 5000 BR FEW002 SCT003 BKN004 17/17 Q1006 RMK 1ST002 4ST003 7ST004 A2973
RJCC 042217Z 36003KT 7000 FEW002 SCT004 BKN006 17/17 Q1006 RMK 1ST002 4ST004 7ST006 A2973
RJCC 042230Z 36003KT 8000 FEW002 SCT004 BKN006 18/18 Q1006 RMK 1ST002 4ST004 7ST006 A2973
RJCC 042300Z 01005KT 8000 FEW003 SCT006 BKN008 18/18 Q1006 RMK 1ST003 4ST006 7ST008 A2973
RJCC 042330Z 34009KT 9999 FEW003 BKN008 20/20 Q1006 RMK 1ST003 7ST008 A2972
2017年7月5日00-24UTC 新千歳空港METAR -1

RJCC 050000Z 36007KT 9999 FEW005 BKN009 21/21 Q1006 RMK 1ST005 7ST009 A2972
RJCC 050010Z 35007KT 320V020 9999 FEW005 SCT009 BKN011 21/21 Q1006 RMK 1ST005 4ST009 7ST011 A2972
RJCC 050030Z 35008KT 9999 FEW006 SCT009 BKN011 21/20 Q1006 RMK 1ST006 3ST009 6ST011 A2972
RJCC 050100Z 35007KT 310V020 9999 FEW008 SCT011 BKN035 22/20 Q1006 RMK 1ST008 4ST011 5CU035 A2972
RJCC 050130Z 36008KT 9999 FEW010 23/21 Q1006 RMK 1ST010 A2972
RJCC 050200Z 34011KT 9999 FEW010 24/21 Q1006 RMK 1ST010 A2971
RJCC 050230Z 35010KT 320V020 9999 FEW010 24/20 Q1006 RMK 1ST010 A2971
RJCC 050300Z 35011KT 320V020 9999 FEW015 SCT/// 25/19 Q1006
RJCC 050330Z 35011KT 9999 FEW015 BKN025 25/19 Q1006 RMK 1ST015 5CU025 A2971
RJCC 050400Z 35011KT 9999 FEW015 BKN030 26/19 Q1005 RMK 1ST015 7CU030 A2970
RJCC 050430Z 35011KT 9999 FEW015 BKN030 25/19 Q1005 RMK 1ST015 6CU030 A2970
RJCC 050500Z 32011KT 290V350 9999 FEW015 SCT030 26/19 Q1005 RMK 1ST015 3CU030 A2970
RJCC 050530Z 35013KT 9999 FEW015 26/19 Q1005 RMK 1ST015 A2969
RJCC 050600Z 35012KT 9999 FEW020 26/18 Q1005 RMK 1CU020 A2969
RJCC 050630Z 35013KT 9999 FEW020 26/17 Q1005 RMK 1CU020 A2969
RJCC 050700Z 34015KT 300V360 9999 FEW020 26/18 Q1005 RMK 1CU020 A2970
RJCC 050730Z 34012KT 9999 FEW020 25/19 Q1005 RMK 1CU020 A2970
RJCC 050800Z 35012KT 9999 FEW020 SCT/// 24/18 Q1006 RMK 1CU020 A2971
RJCC 050830Z 36012KT 9999 FEW020 BKN/// 23/16 Q1006 RMK 1CU020 A2972
RJCC 050900Z 35011KT 9999 FEW020 BKN/// 22/16 Q1006 RMK 1CU020 A2972
RJCC 050930Z 35009KT 9999 FEW020 BKN/// 22/17 Q1006 RMK 1CU020 A2973
RJCC 051000Z 35008KT 9999 FEW020 BKN/// 21/17 Q1007 RMK 1CU020 A2974
RJCC 051030Z 35012KT 9999 FEW020 SCT180 BKN/// 20/16 Q1007 RMK 1CU020 4AC180 A2975
RJCC 051100Z 35011KT 9999 FEW020 BKN180 19/18 Q1008 RMK 1CU020 7AC180 A2977
RJCC 051130Z 35010KT 9999 FEW020 BKN170 19/18 Q1008 RMK 1CU020 7AC170 A2979
-2
RJCC 051200Z 34010KT 9999 FEW020 BKN170 19/17 Q1008 RMK 1CU020 7AC170 A2979
RJCC 051230Z 35009KT 9999 FEW020 SCT120 BKN170 19/17 Q1008 RMK 1CU020 3AC120 7AC170 A2979
RJCC 051300Z 35009KT 9999 FEW020 BKN120 19/17 Q1008 RMK 1CU020 7AC120 A2979
RJCC 051330Z 35009KT 9999 FEW020 BKN120 19/17 Q1008 RMK 1CU020 7AC120 A2979
RJCC 051400Z 35007KT 9999 -SHRA FEW020 SCT045 BKN110 18/17 Q1008 RMK 1CU020 3CU045 7AC110 A2979
RJCC 051430Z 34007KT 9999 FEW020 BKN110 BKN150 19/17 Q1008 RMK 1CU020 5AC110 7AC150 A2979
RJCC 051500Z 35007KT 9999 FEW020 SCT110 BKN150 18/17 Q1008 RMK 1CU020 4AC110 7AC150 A2979
RJCC 051530Z 34007KT 9999 FEW020 SCT110 BKN150 18/18 Q1008 RMK 1CU020 3AC110 7AC150 A2979
RJCC 051600Z 34006KT 9999 FEW020 BKN110 BKN150 18/18 Q1008 RMK 1CU020 5AC110 7AC150 A2979
RJCC 051630Z 33006KT 9999 FEW020 BKN110 19/17 Q1008 RMK 1CU020 7AC110 A2979
RJCC 051700Z 34006KT 9999 FEW020 BKN110 18/17 Q1008 RMK 1CU020 7AC110 A2979
RJCC 051730Z 31006KT 9999 FEW020 BKN110 18/18 Q1008 RMK 1CU020 7AC110 A2979
RJCC 051800Z 29005KT 9999 FEW020 BKN100 BKN130 18/18 Q1009 RMK 1CU020 5AC100 7AC130 A2979
RJCC 051830Z 29006KT 9999 FEW020 BKN150 18/18 Q1009 RMK 1CU020 7AC150 A2980
RJCC 051900Z 30005KT 9999 FEW020 BKN150 18/18 Q1009 RMK 1CU020 7AC150 A2980
RJCC 051930Z 32007KT 9999 FEW020 BKN150 18/18 Q1009 RMK 1CU020 7AC150 A2981
RJCC 052000Z 33006KT 9999 FEW030 BKN150 18/18 Q1009 RMK 1CU030 7AC150 A2981
RJCC 052030Z 34005KT 9999 FEW030 BKN150 18/18 Q1009 RMK 1CU030 7AC150 A2981
RJCC 052100Z 33008KT 9999 FEW030 BKN150 19/18 Q1009 RMK 1CU030 7AC150 A2981
RJCC 052130Z 33008KT 9999 FEW030 BKN150 19/18 Q1009 RMK 1CU030 7AC150 A2981
RJCC 052200Z 34006KT 9999 FEW020 BKN150 20/17 Q1009 RMK 1CU020 6AC150 A2981
RJCC 052230Z 34005KT 9999 FEW020 BKN150 21/18 Q1009 RMK 1CU020 5AC150 A2982
RJCC 052300Z VRB03KT CAVOK 22/17 Q1009 RMK A2980
RJCC 052330Z VRB02KT CAVOK 23/15 Q1009 RMK A2980
2017年7月6日00-24UTC 新千歳空港METAR -1

RJCC 060000Z VRB02KT CAVOK 24/14 Q1009 RMK A2979
RJCC 060030Z VRB02KT CAVOK 25/11 Q1009 RMK A2981
RJCC 060100Z VRB02KT CAVOK 26/15 Q1009 RMK A2980
RJCC 060130Z VRB02KT CAVOK 27/14 Q1009 RMK A2980
RJCC 060200Z 12003KT 050V160 CAVOK 28/16 Q1009 RMK A2979
RJCC 060230Z 10003KT 010V170 CAVOK 28/14 Q1008 RMK A2979
RJCC 060300Z VRB03KT CAVOK 28/14 Q1008 RMK A2978
RJCC 060330Z 13004KT 050V170 CAVOK 29/14 Q1008 RMK A2977
RJCC 060400Z 13003KT 070V180 CAVOK 28/13 Q1008 RMK A2977
RJCC 060430Z 17006KT 130V230 CAVOK 29/14 Q1007 RMK A2976
RJCC 060500Z 17006KT 120V200 CAVOK 29/14 Q1007 RMK A2976
RJCC 060530Z 16006KT 120V200 CAVOK 29/12 Q1007 RMK A2975
RJCC 060600Z 13006KT CAVOK 29/14 Q1007 RMK A2975
RJCC 060630Z 14004KT 100V190 CAVOK 29/11 Q1007 RMK A2975
RJCC 060700Z 19007KT CAVOK 28/10 Q1007 RMK A2975
RJCC 060730Z 18005KT CAVOK 28/10 Q1007 RMK A2975
RJCC 060800Z 14004KT CAVOK 28/12 Q1007 RMK A2975
RJCC 060830Z VRB01KT CAVOK 28/14 Q1007 RMK A2976
RJCC 060900Z 01005KT 330V060 CAVOK 27/19 Q1007 RMK A2976
RJCC 060930Z 02004KT 350V050 CAVOK 26/19 Q1007 RMK A2976
RJCC 061000Z 02005KT CAVOK 25/19 Q1008 RMK A2977
RJCC 061030Z 02003KT CAVOK 24/19 Q1008 RMK A2977
RJCC 061100Z 36004KT CAVOK 23/19 Q1008 RMK A2978
RJCC 061130Z 35005KT CAVOK 23/18 Q1008 RMK A2979
RJCC 061200Z 03002KT CAVOK 22/18 Q1008 RMK A2979
RJCC 061230Z 02003KT CAVOK 22/19 Q1008 RMK A2978
RJCC 061300Z VRB01KT CAVOK 20/19 Q1008 RMK A2979
RJCC 061330Z 14002KT CAVOK 19/19 Q1009 RMK A2979
RJCC 061400Z 17002KT CAVOK 19/19 Q1008 RMK A2979
RJCC 061430Z 17003KT CAVOK 18/18 Q1009 RMK A2980
-2
RJCC 061500Z 14002KT CAVOK 17/17 Q1009 RMK A2979
RJCC 061530Z 12002KT CAVOK 17/17 Q1009 RMK A2980
RJCC 061600Z 13003KT CAVOK 17/17 Q1009 RMK A2981
RJCC 061630Z 11003KT CAVOK 16/16 Q1009 RMK A2980
RJCC 061700Z 18002KT CAVOK 17/17 Q1009 RMK A2981
RJCC 061730Z 10001KT CAVOK 17/17 Q1009 RMK A2980
RJCC 061800Z 23001KT CAVOK 16/16 Q1009 RMK A2981
RJCC 061830Z 20002KT 9999 PRFG NSC 16/16 Q1009 RMK A2981 FG NE-E
RJCC 061900Z 16002KT 9999 PRFG FEW015 15/15 Q1009 RMK 1ST015 A2981 FG NE-E
RJCC 061930Z 14001KT 9999 PRFG FEW005 15/15 Q1009 RMK 1ST005 A2982 FG NE-SE
RJCC 062000Z 11002KT 9999 PRFG FEW005 16/16 Q1009 RMK 1ST005 A2982 FG NE-SE
RJCC 062030Z 09002KT 9999 PRFG FEW005 16/16 Q1009 RMK 1ST005 A2981 FG NE-SE
RJCC 062100Z VRB02KT 9999 PRFG FEW005 18/18 Q1009 RMK 1ST005 A2981 FG NE-SE
RJCC 062130Z 16004KT 130V190 9999 FEW005 19/19 Q1009 RMK 1ST005 A2981
RJCC 062200Z 16003KT 130V210 CAVOK 20/20 Q1009 RMK A2981
RJCC 062230Z 15003KT 120V190 CAVOK 22/21 Q1009 RMK A2980
RJCC 062300Z 15003KT 090V200 CAVOK 23/20 Q1009 RMK A2980
RJCC 062330Z 17004KT 130V220 CAVOK 24/21 Q1009 RMK A2979
2017年7月7日00-24UTC 新千歳空港METAR -1

RJCC 070000Z 16005KT 130V210 CAVOK 26/20 Q1008 RMK A2979
RJCC 070030Z 15004KT 120V190 CAVOK 27/19 Q1008 RMK A2979
RJCC 070100Z 15004KT 080V210 CAVOK 28/20 Q1008 RMK A2978
RJCC 070130Z 16004KT 090V210 CAVOK 28/18 Q1008 RMK A2977
RJCC 070200Z 16005KT 100V200 CAVOK 28/18 Q1008 RMK A2977
RJCC 070230Z 14005KT 080V200 CAVOK 29/17 Q1007 RMK A2976
RJCC 070300Z 14005KT 100V190 9999 FEW050 SCT/// 29/17 Q1007
RJCC 070330Z 17005KT 130V220 9999 FEW050 SCT/// 30/18 Q1007 RMK 1CU050 A2975
RJCC 070400Z 19006KT 150V210 9999 FEW050 SCT/// 30/17 Q1007
RJCC 070430Z 19006KT 140V220 CAVOK 30/17 Q1007 RMK A2974
RJCC 070500Z 19006KT 140V230 CAVOK 30/17 Q1006 RMK A2973
RJCC 070530Z 16007KT 130V210 CAVOK 30/18 Q1006 RMK A2973
RJCC 070600Z 17006KT 140V210 CAVOK 30/18 Q1006 RMK A2973
RJCC 070630Z 15006KT 110V180 CAVOK 30/17 Q1006 RMK A2972
RJCC 070700Z 14006KT CAVOK 30/15 Q1006 RMK A2972
RJCC 070730Z 13005KT CAVOK 29/19 Q1006 RMK A2973
RJCC 070800Z 14005KT CAVOK 29/20 Q1006 RMK A2973
RJCC 070830Z 13005KT CAVOK 28/21 Q1006 RMK A2973
RJCC 070900Z 11005KT CAVOK 27/22 Q1007 RMK A2974
RJCC 070930Z 13004KT CAVOK 26/22 Q1007 RMK A2974
RJCC 071000Z 13003KT CAVOK 25/22 Q1007 RMK A2975
RJCC 071030Z 14003KT 090V180 CAVOK 24/22 Q1007 RMK A2975
RJCC 071100Z 14003KT 110V170 CAVOK 23/23 Q1007 RMK A2976
RJCC 071130Z VRB02KT CAVOK 23/23 Q1008 RMK A2977
RJCC 071200Z 17003KT 110V220 CAVOK 22/22 Q1008 RMK A2977
RJCC 071230Z 15003KT CAVOK 21/21 Q1008 RMK A2977
RJCC 071300Z 20004KT CAVOK 22/22 Q1008 RMK A2977
RJCC 071330Z 20003KT CAVOK 21/21 Q1008 RMK A2977
RJCC 071400Z VRB02KT CAVOK 20/20 Q1008 RMK A2978
RJCC 071430Z VRB02KT CAVOK 21/21 Q1008 RMK A2978
-2
RJCC 071500Z 35005KT CAVOK 21/21 Q1008 RMK A2979
RJCC 071530Z 35007KT CAVOK 20/20 Q1009 RMK A2979
RJCC 071600Z 01007KT CAVOK 21/21 Q1008 RMK A2979
RJCC 071630Z 36005KT 320V030 CAVOK 20/20 Q1008 RMK A2979
RJCC 071700Z 33007KT CAVOK 20/20 Q1008 RMK A2979
RJCC 071730Z 33004KT CAVOK 19/19 Q1008 RMK A2979
RJCC 071800Z 30005KT CAVOK 18/18 Q1008 RMK A2979
RJCC 071830Z 31004KT CAVOK 18/18 Q1008 RMK A2979
RJCC 071900Z 33003KT 9999 PRFG FEW015 18/18 Q1009 RMK 1ST015 A2980 FG NE-SE
RJCC 071930Z 33003KT 9999 PRFG FEW015 18/18 Q1009 RMK 1ST015 A2981 FG NE-SE
RJCC 072000Z 35004KT 9999 PRFG FEW015 18/18 Q1009 RMK 1ST015 A2980 FG E-SE
RJCC 072030Z 35003KT 9999 PRFG FEW015 19/19 Q1009 RMK 1ST015 A2980 FG E-SE
RJCC 072100Z 35003KT 9999 PRFG FEW015 20/19 Q1009 RMK 1ST015 A2981 FG E-SE
RJCC 072130Z VRB02KT 9999 PRFG FEW015 20/19 Q1009 RMK 1ST015 A2982 FG E-SE
RJCC 072200Z VRB02KT 9999 FEW015 22/18 Q1009 RMK 1ST015 A2981
RJCC 072230Z VRB02KT 9999 FEW015 23/17 Q1009 RMK 1ST015 A2982
RJCC 072300Z VRB02KT CAVOK 25/18 Q1009 RMK A2982
RJCC 072330Z VRB01KT CAVOK 26/15 Q1009 RMK A2982
2017年7月8日00-24UTC 新千歳空港METAR -1

RJCC 080000Z VRB02KT CAVOK 27/16 Q1009 RMK A2981
RJCC 080030Z VRB03KT CAVOK 28/14 Q1009 RMK A2981
RJCC 080100Z VRB02KT CAVOK 29/13 Q1009 RMK A2980
RJCC 080130Z 09003KT 030V160 CAVOK 29/14 Q1009 RMK A2980
RJCC 080200Z 02005KT 310V090 CAVOK 29/13 Q1009 RMK A2980
RJCC 080230Z 34004KT 280V030 CAVOK 30/15 Q1009 RMK A2979
RJCC 080300Z 01006KT 330V030 CAVOK 30/15 Q1008 RMK A2978
RJCC 080330Z 02006KT 350V070 CAVOK 30/14 Q1008 RMK A2978
RJCC 080400Z 02006KT 350V080 CAVOK 31/15 Q1008 RMK A2977
RJCC 080430Z 36009KT CAVOK 31/15 Q1008 RMK A2977
RJCC 080500Z 01010KT CAVOK 30/15 Q1008 RMK A2977
RJCC 080530Z 03009KT CAVOK 31/16 Q1008 RMK A2977
RJCC 080600Z 36009KT CAVOK 31/16 Q1008 RMK A2977
RJCC 080630Z 02009KT CAVOK 30/15 Q1008 RMK A2977
RJCC 080700Z 36008KT CAVOK 30/16 Q1008 RMK A2977
RJCC 080730Z 35009KT CAVOK 29/16 Q1007 RMK A2976
RJCC 080800Z 36009KT CAVOK 29/17 Q1008 RMK A2977
RJCC 080830Z 36009KT CAVOK 28/17 Q1008 RMK A2977
RJCC 080900Z 35008KT CAVOK 27/17 Q1008 RMK A2977
RJCC 080930Z 35006KT CAVOK 26/18 Q1008 RMK A2978
RJCC 081000Z 35006KT 320V020 CAVOK 25/18 Q1008 RMK A2978
RJCC 081030Z 35006KT CAVOK 25/17 Q1008 RMK A2979
RJCC 081100Z 36007KT CAVOK 24/17 Q1009 RMK A2979
RJCC 081130Z 35010KT CAVOK 23/18 Q1009 RMK A2981
RJCC 081200Z 35008KT CAVOK 21/19 Q1009 RMK A2981
RJCC 081230Z 36007KT CAVOK 21/19 Q1009 RMK A2981
RJCC 081300Z 35008KT CAVOK 20/20 Q1009 RMK A2981
RJCC 081330Z 34007KT CAVOK 20/20 Q1009 RMK A2981
RJCC 081400Z 34010KT CAVOK 21/20 Q1009 RMK A2980
RJCC 081430Z 33011KT CAVOK 21/19 Q1009 RMK A2980
-2
RJCC 081500Z 33011KT CAVOK 21/19 Q1009 RMK A2981
RJCC 081530Z 34009KT CAVOK 20/19 Q1009 RMK A2981
RJCC 081600Z 34008KT CAVOK 20/19 Q1009 RMK A2980
RJCC 081630Z 35007KT CAVOK 19/19 Q1009 RMK A2981
RJCC 081700Z 34007KT CAVOK 19/19 Q1009 RMK A2980
RJCC 081730Z 35004KT CAVOK 19/19 Q1009 RMK A2980
RJCC 081800Z 36003KT CAVOK 18/18 Q1009 RMK A2980
RJCC 081830Z 33004KT 9999 PRFG NSC 18/18 Q1009 RMK A2980 FG NE-E
RJCC 081900Z 33004KT 9999 PRFG FEW030 BKN/// 19/19 Q1009 RMK 1SC030 A2981 FG NE-E
RJCC 081930Z 33006KT 9999 PRFG NSC 19/19 Q1009 RMK A2981 FG NE-SE
RJCC 082000Z 33006KT 9999 PRFG FEW030 BKN/// 19/19 Q1009 RMK 1SC030 A2982 FG NE-SE
RJCC 082030Z 35007KT 9999 PRFG BR FEW030 BKN/// 19/19 Q1009 RMK 1SC030 A2982 5000NE FG NE-E
RJCC 082100Z 33007KT 9999 PRFG BR FEW030 BKN/// 20/20 Q1010 RMK 1SC030 A2982 5000NE FG NE-E
RJCC 082130Z 35007KT 9999 FEW030 BKN/// 21/20 Q1010 RMK 1SC030 A2983
RJCC 082200Z 36007KT 9999 FEW030 BKN/// 22/19 Q1010 RMK 1SC030 A2982
RJCC 082230Z 01005KT 9999 FEW030 BKN/// 23/19 Q1009 RMK 1CU030 A2982
RJCC 082300Z 35005KT 310V020 9999 FEW030 BKN/// 25/20 Q1009
RJCC 082330Z 01005KT 320V050 9999 FEW030 BKN/// 25/19 Q1009 RMK 1CU030 A2981
2017年7月9日00-24UTC 新千歳空港METAR -1

RJCC 090000Z 01005KT 9999 FEW030 BKN/// 25/20 Q1009 RMK 1CU030 A2980
RJCC 090030Z 01005KT 330V040 9999 FEW030 BKN/// 28/20 Q1009
RJCC 090100Z 34005KT 310V020 9999 FEW030 BKN/// 28/21 Q1008
RJCC 090130Z 01005KT 300V060 9999 FEW030 BKN/// 28/21 Q1008 RMK 1CU030 A2979
RJCC 090200Z 01005KT 310V090 9999 FEW030 BKN/// 29/21 Q1008
RJCC 090230Z VRB04KT 9999 FEW030 BKN/// 29/21 Q1008 RMK 1CU030 A2977
RJCC 090300Z 05004KT 340V130 9999 FEW030 BKN/// 30/21 Q1007 RMK 1CU030 A2976
RJCC 090330Z VRB03KT 9999 FEW030 BKN/// 31/21 Q1007 RMK 1CU030 A2975
RJCC 090400Z 18004KT 120V240 9999 FEW030 BKN/// 30/21 Q1007 RMK 1CU030 A2975
RJCC 090430Z 19010KT 9999 FEW030 BKN/// 30/20 Q1007 RMK 1CU030 A2974
RJCC 090500Z 19012KT 9999 FEW030 BKN/// 30/19 Q1007 RMK 1CU030 A2974
RJCC 090530Z 21010KT 9999 FEW030 BKN/// 30/20 Q1007 RMK 1CU030 A2974
RJCC 090600Z 19010KT 160V230 9999 FEW030 BKN/// 30/20 Q1007 RMK 1CU030 A2974
RJCC 090630Z 19009KT 9999 FEW030 BKN/// 29/20 Q1007 RMK 1CU030 A2974
RJCC 090700Z 19007KT 150V220 9999 FEW030 BKN/// 29/21 Q1007 RMK 1CU030 A2974
RJCC 090730Z 18008KT 9999 FEW030 BKN/// 29/21 Q1007 RMK 1CU030 A2974
RJCC 090800Z 18006KT 9999 FEW030 BKN/// 28/22 Q1007 RMK 1CU030 A2974
RJCC 090830Z 18005KT 160V220 9999 FEW030 BKN/// 28/22 Q1007 RMK 2CU030 A2975
RJCC 090900Z 36009KT 9999 FEW030 SCT/// 28/23 Q1007 RMK 1CU030 A2975
RJCC 090930Z 35009KT 9999 FEW030 SCT/// 28/23 Q1007 RMK 1CU030 A2976
RJCC 091000Z 35007KT 9999 FEW030 SCT060 27/23 Q1007 RMK 1CU030 3SC060 A2976
RJCC 091030Z 01005KT 9999 FEW030 SCT/// 26/23 Q1008 RMK 1CU030 A2977
RJCC 091100Z 35004KT 9999 FEW030 SCT/// 26/24 Q1008 RMK 1CU030 A2977
RJCC 091130Z 01005KT 9999 FEW030 SCT/// 25/24 Q1008 RMK 1CU030 A2978
RJCC 091200Z 36004KT 9999 FEW030 25/24 Q1008 RMK 1CU030 A2977
RJCC 091230Z 33005KT 9999 FEW030 25/24 Q1008 RMK 1CU030 A2978
RJCC 091300Z 30006KT 9999 FEW030 24/24 Q1008 RMK 1CU030 A2978
RJCC 091330Z VRB01KT 9999 FEW030 24/24 Q1008 RMK 1CU030 A2977
-2
RJCC 091400Z 10003KT 9999 FEW030 23/23 Q1008 RMK 1CU030 A2978
RJCC 091430Z 09002KT 9999 FEW030 23/23 Q1008 RMK 1CU030 A2978
RJCC 091500Z 11002KT 9999 FEW030 22/22 Q1008 RMK 1CU030 A2978
RJCC 091530Z VRB02KT 9999 FEW030 22/22 Q1008 RMK 1CU030 A2978
RJCC 091600Z 20003KT 9999 FEW030 22/22 Q1008 RMK 1CU030 A2977
RJCC 091630Z 14002KT 9999 FEW030 22/22 Q1008 RMK 1CU030 A2977
RJCC 091700Z 00000KT 9999 FEW030 21/21 Q1008 RMK 1CU030 A2977
RJCC 091730Z VRB01KT 9999 FEW030 22/22 Q1008 RMK 1CU030 A2977
RJCC 091800Z VRB01KT 9999 FEW010 21/21 Q1008 RMK 1ST010 A2978
RJCC 091830Z 10004KT 9999 PRFG BR FEW004 20/20 Q1008 RMK 1ST004 A2978 2000NE-E FG NE-E
RJCC 091900Z 16004KT 8000 PRFG BR FEW001 21/21 Q1008 RMK 1ST001 A2979 3000SE FG E-SE
RJCC 091930Z 14003KT 7000 PRFG BR FEW001 21/21 Q1008 RMK 1ST001 A2978 2000SE FG SE
RJCC 092000Z 21004KT 180V240 7000 FEW010 SCT120 21/21 Q1008 RMK 1ST010 4AC120 A2979
RJCC 092030Z 18006KT 7000 FEW010 BKN120 22/22 Q1008 RMK 1ST010 5AC120 A2979
RJCC 092100Z 17007KT 7000 FEW010 BKN110 23/23 Q1008 RMK 1ST010 6AC110 A2979
RJCC 092130Z 17006KT 9999 FEW006 BKN100 23/23 Q1009 RMK 1ST006 7AC100 A2980
RJCC 092200Z 17007KT 9999 FEW010 BKN050 23/23 Q1009 RMK 1ST010 7SC050 A2980
RJCC 092230Z 18006KT 9999 FEW010 BKN050 BKN100 23/23 Q1009 RMK 1ST010 6CU050 7AC100 A2981
RJCC 092300Z 18007KT 9999 FEW025 SCT050 BKN090 24/24 Q1009 RMK 1CU025 3CU050 7AC090 A2981
RJCC 092330Z 18009KT 9999 FEW025TCU SCT050 BKN090 24/24 Q1009 RMK 1TCU025 3CU050 7AC090 A2982 TCU W
2017年7月10日00-24UTC 新千歳空港METAR -1

RJCC 100000Z 15008KT 9999 FEW025TCU BKN090 25/23 Q1009 RMK 1TCU025 5AC090 A2981 TCU W
RJCC 100030Z 14009KT 9999 FEW025TCU 26/23 Q1009 RMK 1TCU025 A2981 TCU W
RJCC 100100Z 17010KT 9999 FEW030TCU 27/24 Q1009 RMK 1TCU030 A2980 TCU W-NW
RJCC 100130Z 17010KT 140V210 9999 FEW030TCU 28/24 Q1009 RMK 1TCU030 A2979 TCU W-NW
RJCC 100200Z 18012KT 9999 FEW030TCU 28/24 Q1009 RMK 1TCU030 A2979 TCU W
RJCC 100230Z 16012KT 9999 FEW030TCU 27/23 Q1008 RMK 1TCU030 A2979 TCU NW
RJCC 100300Z 17011KT 9999 FEW030 28/24 Q1008 RMK 1CU030 A2979
RJCC 100330Z 17012KT 9999 FEW030 28/23 Q1008 RMK 1CU030 A2979
RJCC 100400Z 17013KT 9999 FEW030 28/23 Q1008 RMK 1CU030 A2979
RJCC 100430Z 16012KT 9999 FEW030 28/23 Q1008 RMK 1CU030 A2979
RJCC 100500Z 17015KT 9999 FEW030 SCT120 27/23 Q1008 RMK 1CU030 4AC120 A2979
RJCC 100530Z 17015KT 9999 FEW030 BKN120 26/23 Q1008 RMK 1CU030 5AC120 A2979
RJCC 100600Z 17012KT 9999 FEW030 BKN120 25/22 Q1009 RMK 1CU030 7AC120 A2979
RJCC 100630Z 16012KT 9999 FEW030 BKN120 25/23 Q1009 RMK 1CU030 7AC120 A2979
RJCC 100700Z 17012KT 9999 FEW030 SCT070 BKN130 25/23 Q1009 RMK 1CU030 3AC070 7AC130 A2980
RJCC 100730Z 16012KT 9999 FEW030 SCT070 BKN130 24/23 Q1009 RMK 1CU030 3AC070 7AC130 A2980
RJCC 100800Z 15011KT 9999 FEW030 BKN120 25/24 Q1009 RMK 1CU030 6AC120 A2979
RJCC 100830Z 15009KT 9999 FEW030 SCT110 24/23 Q1009 RMK 1CU030 3AC110 A2981
RJCC 100900Z 15010KT 9999 FEW030 SCT/// 24/24 Q1009 RMK 1CU030 A2981
RJCC 100930Z 14009KT 9999 FEW030 BKN/// 24/24 Q1009 RMK 1CU030 A2982
RJCC 101000Z 15008KT 9999 FEW010 BKN/// 23/23 Q1010 RMK 1ST010 A2983
RJCC 101030Z 16009KT 9999 FEW010 BKN/// 22/22 Q1010 RMK 1ST010 A2983
RJCC 101100Z 16007KT 9999 FEW010 BKN/// 21/21 Q1010
RJCC 101130Z 17007KT 9999 FEW010 SCT090 BKN/// 21/21 Q1011 RMK 1ST010 3AC090 A2986
RJCC 101200Z 17006KT 9999 FEW010 BKN090 BKN/// 21/21 Q1011 RMK 1ST010 5AC090 A2986
RJCC 101230Z 16005KT 9999 FEW010 BKN090 21/21 Q1011 RMK 1ST010 7AC090 A2986
-2
RJCC 101300Z 16005KT 9999 FEW010 BKN090 BKN/// 22/22 Q1011 RMK 1ST010 5AC090 A2985
RJCC 101330Z 21005KT 9999 FEW010 SCT080 BKN/// 21/21 Q1011 RMK 1ST010 4AC080 A2986
RJCC 101400Z 18005KT 9999 FEW010 BKN090 21/21 Q1011 RMK 1ST010 6AC090 A2985
RJCC 101430Z 19005KT 9999 FEW010 BKN090 21/21 Q1010 RMK 1ST010 5AC090 A2985
RJCC 101500Z 19004KT 9999 FEW010 SCT090 21/21 Q1010 RMK 1ST010 3AC090 A2985
RJCC 101530Z 21005KT 9999 FEW010 BKN080 21/21 Q1010 RMK 1ST010 5AC080 A2985
RJCC 101600Z 21005KT 9999 FEW010 SCT080 BKN/// 20/20 Q1010 RMK 1ST010 3AC080 A2984
RJCC 101630Z 22006KT 9999 FEW010 SCT080 20/20 Q1010 RMK 1ST010 3AC080 A2984
RJCC 101700Z 20005KT 9999 FEW010 SCT070 20/20 Q1010 RMK 1ST010 3AC070 A2983
RJCC 101730Z 20006KT 9999 FEW010 SCT100 21/21 Q1010 RMK 1ST010 3AC100 A2983
RJCC 101800Z 19007KT 9999 FEW010 BKN100 21/21 Q1010 RMK 1ST010 6AC100 A2982
RJCC 101830Z 18006KT 9999 FEW010 BKN090 21/21 Q1010 RMK 1ST010 6AC090 A2982
RJCC 101900Z 16005KT 9999 FEW010 SCT090 BKN/// 20/20 Q1010 RMK 1ST010 4AC090 A2983
RJCC 101930Z 14004KT 9999 FEW025 SCT045 BKN/// 20/20 Q1010 RMK 1CU025 3CU045 A2984
RJCC 102000Z 16006KT 9999 FEW025 SCT045 BKN/// 20/20 Q1010
RJCC 102030Z 15006KT 9999 FEW025 SCT080 BKN/// 21/21 Q1010 RMK 1CU025 4AC080 A2984
RJCC 102100Z 14010KT 9999 FEW006 BKN070 BKN/// 21/21 Q1010 RMK 1ST006 5AC070 A2984
RJCC 102123Z 15008KT 9999 FEW005 BKN006 BKN070 21/21 Q1010 RMK 1ST005 5ST006 7AC070 A2984
RJCC 102130Z 14008KT 9999 FEW005 BKN006 BKN070 21/21 Q1010 RMK 1ST005 5ST006 7AC070 A2983
RJCC 102200Z 16009KT 8000 FEW004 BKN005 BKN006 21/21 Q1010 RMK 2ST004 5ST005 7ST006 A2984
RJCC 102219Z 16010KT 7000 FEW003 BKN004 BKN005 21/21 Q1010 RMK 1ST003 5ST004 7ST005 A2984
RJCC 102230Z 15011KT 7000 FEW003 BKN004 BKN005 21/21 Q1010 RMK 2ST003 5ST004 7ST005 A2984
RJCC 102241Z 15012KT 4900 BR FEW002 SCT003 BKN004 21/21 Q1010 RMK 1ST002 3ST003 6ST004 A2985
RJCC 102247Z 16012KT 3100 BR FEW002 BKN003 BKN004 21/21 Q1010 RMK 2ST002 5ST003 6ST004 A2984
-3
RJCC 102300Z 16011KT 1400 R19R/P1800N R19L/P1800N BR FEW001 BKN002 BKN003 20/20 Q1010
RJCC 102316Z 18011KT 0900 R19R/1200VP1800U R19L/1000VP1800D FG VV002 20/20 Q1010 RMK A2985
RJCC 102317Z 17011KT 0900 R19R/1100VP1800N R19L/0800VP1800D FG VV002 20/20 Q1010 RMK A2985
RJCC 102318Z 17011KT 0900 R19R/1100VP1800D R19L/0700VP1800D FG VV002 20/20 Q1010 RMK A2985
RJCC 102319Z 17011KT 0900 R19R/1100VP1800D R19L/0700VP1800D FG VV002 20/20 Q1010 RMK A2985
RJCC 102324Z 17011KT 0700 R19R/0800VP1800D R19L/0700V1800D FG VV001 20/20 Q1010 RMK A2985
RJCC 102328Z 16011KT 0700 R19R/0800VP1800U R19L/0700VP1800U FG VV001 20/20 Q1010 RMK A2985
RJCC 102329Z 16011KT 0700 R19R/0800VP1800U R19L/0750VP1800U FG VV001 20/20 Q1010 RMK A2985
RJCC 102330Z 17010KT 0700 R19R/0800VP1800U R19L/0900VP1800U FG VV001 20/20 Q1010
RJCC 102331Z 17010KT 0700 R19R/0800VP1800U R19L/0900VP1800U FG VV001 20/20 Q1010 RMK A2985
RJCC 102334Z 17010KT 0900 R19R/1200VP1800U R19L/1400VP1800U FG VV001 20/20 Q1010 RMK A2985
RJCC 102338Z 17009KT 0900 R19R/1200VP1800U R19L/1700D FG VV001 20/20 Q1010 RMK A2985
RJCC 102344Z 17010KT 1500 R19R/1600VP1800N R19L/1700U BCFG BR VV002 20/20 Q1010 RMK A2985
RJCC 102348Z 17011KT 1500 R19R/1600VP1800N R19L/1400VP1800N BCFG BR FEW001 BKN002 20/20 Q1010 RMK 1ST001 7ST002 A2985

ログインすると、残り495件のコメントが見れるよ

mixiユーザー
ログインしてコメントしよう!

RJCCのMETAR・TAF 愛好会 更新情報

RJCCのMETAR・TAF 愛好会のメンバーはこんなコミュニティにも参加しています

星印の数は、共通して参加しているメンバーが多いほど増えます。

人気コミュニティランキング

mixiチケット決済